<?xml version="1.0" encoding="UTF-8" standalone="no" ?>
<gpx xmlns="http://www.topografix.com/GPX/1/1" xmlns:xsi="http://www.w3.org/2001/XMLSchema-instance" xsi:schemaLocation="http://www.topografix.com/GPX/1/1 http://www.topografix.com/GPX/1/1/gpx.xsd" version="1.1" creator="VisuGPX - https://www.visugpx.com">
  <metadata>
    <name>la découverte méaudre</name>
    <desc><![CDATA[nouvelle piste verte découverte ou bergerie à méaudre
itinéraire descendant en vtt]]></desc>
  </metadata>
  <trk>
    <name><![CDATA[la découVerte]]></name>
    <trkseg>
      <trkpt lat="45.12731" lon="5.50613">
        <ele>1280.4000244141</ele>
        <time>2014-05-20T15:55:03.000Z</time>
      </trkpt>
      <trkpt lat="45.12732" lon="5.50614">
        <ele>1280.4000244141</ele>
        <time>2014-05-20T15:55:06.000Z</time>
      </trkpt>
      <trkpt lat="45.12732" lon="5.50614">
        <ele>1281.1999511719</ele>
        <time>2014-05-20T15:55:07.000Z</time>
      </trkpt>
      <trkpt lat="45.12733" lon="5.50616">
        <ele>1281.1999511719</ele>
        <time>2014-05-20T15:55:15.000Z</time>
      </trkpt>
      <trkpt lat="45.12743" lon="5.50625">
        <ele>1281.1999511719</ele>
        <time>2014-05-20T15:55:20.000Z</time>
      </trkpt>
      <trkpt lat="45.12757" lon="5.50634">
        <ele>1281.1999511719</ele>
        <time>2014-05-20T15:55:24.000Z</time>
      </trkpt>
      <trkpt lat="45.12775" lon="5.50631">
        <ele>1281.1999511719</ele>
        <time>2014-05-20T15:55:28.000Z</time>
      </trkpt>
      <trkpt lat="45.1278" lon="5.50626">
        <ele>1281.1999511719</ele>
        <time>2014-05-20T15:55:30.000Z</time>
      </trkpt>
      <trkpt lat="45.12784" lon="5.50621">
        <ele>1281.1999511719</ele>
        <time>2014-05-20T15:55:32.000Z</time>
      </trkpt>
      <trkpt lat="45.12793" lon="5.50608">
        <ele>1281.1999511719</ele>
        <time>2014-05-20T15:55:37.000Z</time>
      </trkpt>
      <trkpt lat="45.12797" lon="5.50606">
        <ele>1281.1999511719</ele>
        <time>2014-05-20T15:55:38.000Z</time>
      </trkpt>
      <trkpt lat="45.12806" lon="5.50599">
        <ele>1280.5999755859</ele>
        <time>2014-05-20T15:55:40.000Z</time>
      </trkpt>
      <trkpt lat="45.12813" lon="5.50599">
        <ele>1280.1999511719</ele>
        <time>2014-05-20T15:55:41.000Z</time>
      </trkpt>
      <trkpt lat="45.1282" lon="5.506">
        <ele>1279.8000488281</ele>
        <time>2014-05-20T15:55:42.000Z</time>
      </trkpt>
      <trkpt lat="45.12827" lon="5.50603">
        <ele>1279.4000244141</ele>
        <time>2014-05-20T15:55:43.000Z</time>
      </trkpt>
      <trkpt lat="45.12834" lon="5.50606">
        <ele>1278.4000244141</ele>
        <time>2014-05-20T15:55:44.000Z</time>
      </trkpt>
      <trkpt lat="45.12839" lon="5.5061">
        <ele>1278</ele>
        <time>2014-05-20T15:55:45.000Z</time>
      </trkpt>
      <trkpt lat="45.12845" lon="5.50613">
        <ele>1277.4000244141</ele>
        <time>2014-05-20T15:55:46.000Z</time>
      </trkpt>
      <trkpt lat="45.12851" lon="5.50616">
        <ele>1277</ele>
        <time>2014-05-20T15:55:47.000Z</time>
      </trkpt>
      <trkpt lat="45.12855" lon="5.50616">
        <ele>1277</ele>
        <time>2014-05-20T15:55:48.000Z</time>
      </trkpt>
      <trkpt lat="45.1286" lon="5.50617">
        <ele>1277</ele>
        <time>2014-05-20T15:55:49.000Z</time>
      </trkpt>
      <trkpt lat="45.12867" lon="5.50623">
        <ele>1277</ele>
        <time>2014-05-20T15:55:55.000Z</time>
      </trkpt>
      <trkpt lat="45.12883" lon="5.50621">
        <ele>1277</ele>
        <time>2014-05-20T15:56:00.000Z</time>
      </trkpt>
      <trkpt lat="45.12893" lon="5.50618">
        <ele>1277</ele>
        <time>2014-05-20T15:56:03.000Z</time>
      </trkpt>
      <trkpt lat="45.12898" lon="5.50614">
        <ele>1277</ele>
        <time>2014-05-20T15:56:05.000Z</time>
      </trkpt>
      <trkpt lat="45.12907" lon="5.50602">
        <ele>1277</ele>
        <time>2014-05-20T15:56:10.000Z</time>
      </trkpt>
      <trkpt lat="45.12914" lon="5.50582">
        <ele>1277</ele>
        <time>2014-05-20T15:56:16.000Z</time>
      </trkpt>
      <trkpt lat="45.12924" lon="5.5057">
        <ele>1277.4000244141</ele>
        <time>2014-05-20T15:56:20.000Z</time>
      </trkpt>
      <trkpt lat="45.12926" lon="5.50568">
        <ele>1277.8000488281</ele>
        <time>2014-05-20T15:56:21.000Z</time>
      </trkpt>
      <trkpt lat="45.12929" lon="5.50566">
        <ele>1278.1999511719</ele>
        <time>2014-05-20T15:56:22.000Z</time>
      </trkpt>
      <trkpt lat="45.12932" lon="5.50564">
        <ele>1278.5999755859</ele>
        <time>2014-05-20T15:56:23.000Z</time>
      </trkpt>
      <trkpt lat="45.12934" lon="5.50563">
        <ele>1279</ele>
        <time>2014-05-20T15:56:24.000Z</time>
      </trkpt>
      <trkpt lat="45.12936" lon="5.50562">
        <ele>1279</ele>
        <time>2014-05-20T15:56:25.000Z</time>
      </trkpt>
      <trkpt lat="45.12952" lon="5.50553">
        <ele>1279</ele>
        <time>2014-05-20T15:56:32.000Z</time>
      </trkpt>
      <trkpt lat="45.12954" lon="5.5055">
        <ele>1279.4000244141</ele>
        <time>2014-05-20T15:56:33.000Z</time>
      </trkpt>
      <trkpt lat="45.12957" lon="5.50548">
        <ele>1280.1999511719</ele>
        <time>2014-05-20T15:56:34.000Z</time>
      </trkpt>
      <trkpt lat="45.1296" lon="5.50546">
        <ele>1280.5999755859</ele>
        <time>2014-05-20T15:56:35.000Z</time>
      </trkpt>
      <trkpt lat="45.12964" lon="5.50542">
        <ele>1281</ele>
        <time>2014-05-20T15:56:36.000Z</time>
      </trkpt>
      <trkpt lat="45.1297" lon="5.50535">
        <ele>1281</ele>
        <time>2014-05-20T15:56:38.000Z</time>
      </trkpt>
      <trkpt lat="45.1298" lon="5.50518">
        <ele>1281</ele>
        <time>2014-05-20T15:56:43.000Z</time>
      </trkpt>
      <trkpt lat="45.12981" lon="5.50515">
        <ele>1281.5999755859</ele>
        <time>2014-05-20T15:56:44.000Z</time>
      </trkpt>
      <trkpt lat="45.12982" lon="5.50512">
        <ele>1282</ele>
        <time>2014-05-20T15:56:45.000Z</time>
      </trkpt>
      <trkpt lat="45.12983" lon="5.50509">
        <ele>1282.4000244141</ele>
        <time>2014-05-20T15:56:46.000Z</time>
      </trkpt>
      <trkpt lat="45.12984" lon="5.50505">
        <ele>1282.8000488281</ele>
        <time>2014-05-20T15:56:47.000Z</time>
      </trkpt>
      <trkpt lat="45.12986" lon="5.50501">
        <ele>1283.1999511719</ele>
        <time>2014-05-20T15:56:48.000Z</time>
      </trkpt>
      <trkpt lat="45.12995" lon="5.50481">
        <ele>1283.1999511719</ele>
        <time>2014-05-20T15:56:54.000Z</time>
      </trkpt>
      <trkpt lat="45.13003" lon="5.50467">
        <ele>1284.1999511719</ele>
        <time>2014-05-20T15:56:58.000Z</time>
      </trkpt>
      <trkpt lat="45.13005" lon="5.50464">
        <ele>1284.5999755859</ele>
        <time>2014-05-20T15:56:59.000Z</time>
      </trkpt>
      <trkpt lat="45.13007" lon="5.50461">
        <ele>1285.1999511719</ele>
        <time>2014-05-20T15:57:00.000Z</time>
      </trkpt>
      <trkpt lat="45.13009" lon="5.50459">
        <ele>1285.5999755859</ele>
        <time>2014-05-20T15:57:01.000Z</time>
      </trkpt>
      <trkpt lat="45.13016" lon="5.50452">
        <ele>1285.5999755859</ele>
        <time>2014-05-20T15:57:04.000Z</time>
      </trkpt>
      <trkpt lat="45.13031" lon="5.50442">
        <ele>1285.5999755859</ele>
        <time>2014-05-20T15:57:09.000Z</time>
      </trkpt>
      <trkpt lat="45.13033" lon="5.50442">
        <ele>1286</ele>
        <time>2014-05-20T15:57:10.000Z</time>
      </trkpt>
      <trkpt lat="45.13036" lon="5.50443">
        <ele>1286.4000244141</ele>
        <time>2014-05-20T15:57:11.000Z</time>
      </trkpt>
      <trkpt lat="45.13038" lon="5.50445">
        <ele>1286.8000488281</ele>
        <time>2014-05-20T15:57:12.000Z</time>
      </trkpt>
      <trkpt lat="45.1304" lon="5.50446">
        <ele>1287.4000244141</ele>
        <time>2014-05-20T15:57:13.000Z</time>
      </trkpt>
      <trkpt lat="45.13043" lon="5.50447">
        <ele>1287.8000488281</ele>
        <time>2014-05-20T15:57:14.000Z</time>
      </trkpt>
      <trkpt lat="45.1305" lon="5.50455">
        <ele>1288.1999511719</ele>
        <time>2014-05-20T15:57:19.000Z</time>
      </trkpt>
      <trkpt lat="45.13051" lon="5.50457">
        <ele>1288.5999755859</ele>
        <time>2014-05-20T15:57:20.000Z</time>
      </trkpt>
      <trkpt lat="45.13053" lon="5.50459">
        <ele>1289</ele>
        <time>2014-05-20T15:57:21.000Z</time>
      </trkpt>
      <trkpt lat="45.13054" lon="5.50462">
        <ele>1289.4000244141</ele>
        <time>2014-05-20T15:57:22.000Z</time>
      </trkpt>
      <trkpt lat="45.13054" lon="5.50464">
        <ele>1289.8000488281</ele>
        <time>2014-05-20T15:57:23.000Z</time>
      </trkpt>
      <trkpt lat="45.13059" lon="5.50474">
        <ele>1290.4000244141</ele>
        <time>2014-05-20T15:57:26.000Z</time>
      </trkpt>
      <trkpt lat="45.1306" lon="5.50477">
        <ele>1290.8000488281</ele>
        <time>2014-05-20T15:57:27.000Z</time>
      </trkpt>
      <trkpt lat="45.13061" lon="5.5048">
        <ele>1291.1999511719</ele>
        <time>2014-05-20T15:57:28.000Z</time>
      </trkpt>
      <trkpt lat="45.13064" lon="5.50484">
        <ele>1291.8000488281</ele>
        <time>2014-05-20T15:57:29.000Z</time>
      </trkpt>
      <trkpt lat="45.13068" lon="5.50488">
        <ele>1292.1999511719</ele>
        <time>2014-05-20T15:57:30.000Z</time>
      </trkpt>
      <trkpt lat="45.13074" lon="5.50493">
        <ele>1292.1999511719</ele>
        <time>2014-05-20T15:57:32.000Z</time>
      </trkpt>
      <trkpt lat="45.13086" lon="5.50497">
        <ele>1292.5999755859</ele>
        <time>2014-05-20T15:57:36.000Z</time>
      </trkpt>
      <trkpt lat="45.13089" lon="5.50497">
        <ele>1293</ele>
        <time>2014-05-20T15:57:37.000Z</time>
      </trkpt>
      <trkpt lat="45.13093" lon="5.50497">
        <ele>1293.4000244141</ele>
        <time>2014-05-20T15:57:38.000Z</time>
      </trkpt>
      <trkpt lat="45.13096" lon="5.50497">
        <ele>1294</ele>
        <time>2014-05-20T15:57:39.000Z</time>
      </trkpt>
      <trkpt lat="45.13099" lon="5.50497">
        <ele>1294.4000244141</ele>
        <time>2014-05-20T15:57:40.000Z</time>
      </trkpt>
      <trkpt lat="45.13118" lon="5.50496">
        <ele>1294.4000244141</ele>
        <time>2014-05-20T15:57:45.000Z</time>
      </trkpt>
      <trkpt lat="45.13141" lon="5.50499">
        <ele>1294.4000244141</ele>
        <time>2014-05-20T15:57:51.000Z</time>
      </trkpt>
      <trkpt lat="45.13164" lon="5.50504">
        <ele>1294.8000488281</ele>
        <time>2014-05-20T15:57:58.000Z</time>
      </trkpt>
      <trkpt lat="45.13168" lon="5.50504">
        <ele>1295.1999511719</ele>
        <time>2014-05-20T15:57:59.000Z</time>
      </trkpt>
      <trkpt lat="45.13171" lon="5.50504">
        <ele>1295.5999755859</ele>
        <time>2014-05-20T15:58:00.000Z</time>
      </trkpt>
      <trkpt lat="45.13174" lon="5.50503">
        <ele>1296</ele>
        <time>2014-05-20T15:58:01.000Z</time>
      </trkpt>
      <trkpt lat="45.13178" lon="5.50503">
        <ele>1296.4000244141</ele>
        <time>2014-05-20T15:58:02.000Z</time>
      </trkpt>
      <trkpt lat="45.13183" lon="5.505">
        <ele>1296.4000244141</ele>
        <time>2014-05-20T15:58:04.000Z</time>
      </trkpt>
      <trkpt lat="45.13195" lon="5.50491">
        <ele>1296.8000488281</ele>
        <time>2014-05-20T15:58:10.000Z</time>
      </trkpt>
      <trkpt lat="45.13197" lon="5.50489">
        <ele>1297.1999511719</ele>
        <time>2014-05-20T15:58:11.000Z</time>
      </trkpt>
      <trkpt lat="45.13198" lon="5.50488">
        <ele>1297.5999755859</ele>
        <time>2014-05-20T15:58:12.000Z</time>
      </trkpt>
      <trkpt lat="45.132" lon="5.50487">
        <ele>1298.5999755859</ele>
        <time>2014-05-20T15:58:13.000Z</time>
      </trkpt>
      <trkpt lat="45.13211" lon="5.5048">
        <ele>1298.5999755859</ele>
        <time>2014-05-20T15:58:17.000Z</time>
      </trkpt>
      <trkpt lat="45.13223" lon="5.50477">
        <ele>1298.5999755859</ele>
        <time>2014-05-20T15:58:23.000Z</time>
      </trkpt>
      <trkpt lat="45.1323" lon="5.50479">
        <ele>1298.5999755859</ele>
        <time>2014-05-20T15:58:28.000Z</time>
      </trkpt>
      <trkpt lat="45.13233" lon="5.50481">
        <ele>1298.5999755859</ele>
        <time>2014-05-20T15:58:29.000Z</time>
      </trkpt>
      <trkpt lat="45.13234" lon="5.50483">
        <ele>1298.5999755859</ele>
        <time>2014-05-20T15:58:30.000Z</time>
      </trkpt>
      <trkpt lat="45.13239" lon="5.50495">
        <ele>1298.5999755859</ele>
        <time>2014-05-20T15:58:33.000Z</time>
      </trkpt>
      <trkpt lat="45.13246" lon="5.50509">
        <ele>1298.5999755859</ele>
        <time>2014-05-20T15:58:37.000Z</time>
      </trkpt>
      <trkpt lat="45.13249" lon="5.50508">
        <ele>1298.5999755859</ele>
        <time>2014-05-20T15:58:38.000Z</time>
      </trkpt>
      <trkpt lat="45.13254" lon="5.50504">
        <ele>1298.5999755859</ele>
        <time>2014-05-20T15:58:41.000Z</time>
      </trkpt>
      <trkpt lat="45.13255" lon="5.50503">
        <ele>1298.5999755859</ele>
        <time>2014-05-20T15:58:42.000Z</time>
      </trkpt>
      <trkpt lat="45.13258" lon="5.50497">
        <ele>1298.5999755859</ele>
        <time>2014-05-20T15:58:48.000Z</time>
      </trkpt>
      <trkpt lat="45.13261" lon="5.50487">
        <ele>1298.5999755859</ele>
        <time>2014-05-20T15:58:55.000Z</time>
      </trkpt>
      <trkpt lat="45.13263" lon="5.50482">
        <ele>1298.5999755859</ele>
        <time>2014-05-20T15:58:59.000Z</time>
      </trkpt>
      <trkpt lat="45.13266" lon="5.50471">
        <ele>1298.5999755859</ele>
        <time>2014-05-20T15:59:05.000Z</time>
      </trkpt>
      <trkpt lat="45.13266" lon="5.50469">
        <ele>1298.5999755859</ele>
        <time>2014-05-20T15:59:06.000Z</time>
      </trkpt>
      <trkpt lat="45.1327" lon="5.50465">
        <ele>1298.5999755859</ele>
        <time>2014-05-20T15:59:10.000Z</time>
      </trkpt>
      <trkpt lat="45.13272" lon="5.50466">
        <ele>1298.1999511719</ele>
        <time>2014-05-20T15:59:13.000Z</time>
      </trkpt>
      <trkpt lat="45.13274" lon="5.50465">
        <ele>1297.5999755859</ele>
        <time>2014-05-20T15:59:14.000Z</time>
      </trkpt>
      <trkpt lat="45.13275" lon="5.50465">
        <ele>1297.1999511719</ele>
        <time>2014-05-20T15:59:15.000Z</time>
      </trkpt>
      <trkpt lat="45.13277" lon="5.50464">
        <ele>1296.8000488281</ele>
        <time>2014-05-20T15:59:16.000Z</time>
      </trkpt>
      <trkpt lat="45.13279" lon="5.50463">
        <ele>1296.4000244141</ele>
        <time>2014-05-20T15:59:17.000Z</time>
      </trkpt>
      <trkpt lat="45.1328" lon="5.50462">
        <ele>1296.4000244141</ele>
        <time>2014-05-20T15:59:18.000Z</time>
      </trkpt>
      <trkpt lat="45.13286" lon="5.50456">
        <ele>1296</ele>
        <time>2014-05-20T15:59:22.000Z</time>
      </trkpt>
      <trkpt lat="45.13287" lon="5.50456">
        <ele>1295.5999755859</ele>
        <time>2014-05-20T15:59:23.000Z</time>
      </trkpt>
      <trkpt lat="45.13288" lon="5.50456">
        <ele>1295.1999511719</ele>
        <time>2014-05-20T15:59:24.000Z</time>
      </trkpt>
      <trkpt lat="45.1329" lon="5.50454">
        <ele>1294.8000488281</ele>
        <time>2014-05-20T15:59:25.000Z</time>
      </trkpt>
      <trkpt lat="45.13292" lon="5.50453">
        <ele>1294.4000244141</ele>
        <time>2014-05-20T15:59:26.000Z</time>
      </trkpt>
      <trkpt lat="45.13292" lon="5.50453">
        <ele>1294.4000244141</ele>
        <time>2014-05-20T15:59:31.000Z</time>
      </trkpt>
      <trkpt lat="45.13296" lon="5.5045">
        <ele>1294.4000244141</ele>
        <time>2014-05-20T15:59:36.000Z</time>
      </trkpt>
      <trkpt lat="45.13297" lon="5.50449">
        <ele>1294</ele>
        <time>2014-05-20T15:59:37.000Z</time>
      </trkpt>
      <trkpt lat="45.13297" lon="5.50448">
        <ele>1293.4000244141</ele>
        <time>2014-05-20T15:59:38.000Z</time>
      </trkpt>
      <trkpt lat="45.13298" lon="5.50447">
        <ele>1293</ele>
        <time>2014-05-20T15:59:39.000Z</time>
      </trkpt>
      <trkpt lat="45.13298" lon="5.50446">
        <ele>1292.5999755859</ele>
        <time>2014-05-20T15:59:40.000Z</time>
      </trkpt>
      <trkpt lat="45.13299" lon="5.50445">
        <ele>1292.1999511719</ele>
        <time>2014-05-20T15:59:41.000Z</time>
      </trkpt>
      <trkpt lat="45.133" lon="5.50443">
        <ele>1292.1999511719</ele>
        <time>2014-05-20T15:59:42.000Z</time>
      </trkpt>
      <trkpt lat="45.13301" lon="5.5044">
        <ele>1292.1999511719</ele>
        <time>2014-05-20T15:59:50.000Z</time>
      </trkpt>
      <trkpt lat="45.13303" lon="5.50441">
        <ele>1291.8000488281</ele>
        <time>2014-05-20T15:59:53.000Z</time>
      </trkpt>
      <trkpt lat="45.13302" lon="5.50442">
        <ele>1291.4000244141</ele>
        <time>2014-05-20T15:59:54.000Z</time>
      </trkpt>
      <trkpt lat="45.13301" lon="5.50443">
        <ele>1290.8000488281</ele>
        <time>2014-05-20T15:59:55.000Z</time>
      </trkpt>
      <trkpt lat="45.13301" lon="5.50443">
        <ele>1290.4000244141</ele>
        <time>2014-05-20T15:59:56.000Z</time>
      </trkpt>
      <trkpt lat="45.13301" lon="5.50443">
        <ele>1290</ele>
        <time>2014-05-20T15:59:57.000Z</time>
      </trkpt>
      <trkpt lat="45.13302" lon="5.50444">
        <ele>1289.5999755859</ele>
        <time>2014-05-20T15:59:58.000Z</time>
      </trkpt>
      <trkpt lat="45.13302" lon="5.50446">
        <ele>1289.1999511719</ele>
        <time>2014-05-20T15:59:59.000Z</time>
      </trkpt>
      <trkpt lat="45.13303" lon="5.50447">
        <ele>1288.8000488281</ele>
        <time>2014-05-20T16:00:00.000Z</time>
      </trkpt>
      <trkpt lat="45.13303" lon="5.50448">
        <ele>1288.1999511719</ele>
        <time>2014-05-20T16:00:01.000Z</time>
      </trkpt>
      <trkpt lat="45.13303" lon="5.50449">
        <ele>1287.8000488281</ele>
        <time>2014-05-20T16:00:02.000Z</time>
      </trkpt>
      <trkpt lat="45.13304" lon="5.5045">
        <ele>1287.8000488281</ele>
        <time>2014-05-20T16:00:08.000Z</time>
      </trkpt>
      <trkpt lat="45.13304" lon="5.5045">
        <ele>1287.8000488281</ele>
        <time>2014-05-20T16:00:18.000Z</time>
      </trkpt>
      <trkpt lat="45.13304" lon="5.50456">
        <ele>1287.4000244141</ele>
        <time>2014-05-20T16:00:23.000Z</time>
      </trkpt>
      <trkpt lat="45.13304" lon="5.50458">
        <ele>1287</ele>
        <time>2014-05-20T16:00:24.000Z</time>
      </trkpt>
      <trkpt lat="45.13303" lon="5.50461">
        <ele>1286.4000244141</ele>
        <time>2014-05-20T16:00:25.000Z</time>
      </trkpt>
      <trkpt lat="45.13303" lon="5.50463">
        <ele>1286</ele>
        <time>2014-05-20T16:00:26.000Z</time>
      </trkpt>
      <trkpt lat="45.13303" lon="5.50464">
        <ele>1285.5999755859</ele>
        <time>2014-05-20T16:00:27.000Z</time>
      </trkpt>
      <trkpt lat="45.13305" lon="5.5047">
        <ele>1285.5999755859</ele>
        <time>2014-05-20T16:00:31.000Z</time>
      </trkpt>
      <trkpt lat="45.13305" lon="5.50477">
        <ele>1285.1999511719</ele>
        <time>2014-05-20T16:00:36.000Z</time>
      </trkpt>
      <trkpt lat="45.13305" lon="5.50477">
        <ele>1284.8000488281</ele>
        <time>2014-05-20T16:00:37.000Z</time>
      </trkpt>
      <trkpt lat="45.13304" lon="5.50478">
        <ele>1284.4000244141</ele>
        <time>2014-05-20T16:00:38.000Z</time>
      </trkpt>
      <trkpt lat="45.13304" lon="5.50479">
        <ele>1284</ele>
        <time>2014-05-20T16:00:39.000Z</time>
      </trkpt>
      <trkpt lat="45.13304" lon="5.5048">
        <ele>1283.5999755859</ele>
        <time>2014-05-20T16:00:40.000Z</time>
      </trkpt>
      <trkpt lat="45.13303" lon="5.50487">
        <ele>1283.5999755859</ele>
        <time>2014-05-20T16:00:46.000Z</time>
      </trkpt>
      <trkpt lat="45.13302" lon="5.50492">
        <ele>1283.1999511719</ele>
        <time>2014-05-20T16:00:48.000Z</time>
      </trkpt>
      <trkpt lat="45.13302" lon="5.50496">
        <ele>1282.5999755859</ele>
        <time>2014-05-20T16:00:49.000Z</time>
      </trkpt>
      <trkpt lat="45.13302" lon="5.50498">
        <ele>1282.1999511719</ele>
        <time>2014-05-20T16:00:50.000Z</time>
      </trkpt>
      <trkpt lat="45.13303" lon="5.50499">
        <ele>1281.8000488281</ele>
        <time>2014-05-20T16:00:51.000Z</time>
      </trkpt>
      <trkpt lat="45.13303" lon="5.50499">
        <ele>1281.4000244141</ele>
        <time>2014-05-20T16:00:52.000Z</time>
      </trkpt>
      <trkpt lat="45.13306" lon="5.50498">
        <ele>1281.4000244141</ele>
        <time>2014-05-20T16:00:55.000Z</time>
      </trkpt>
      <trkpt lat="45.13307" lon="5.50497">
        <ele>1281</ele>
        <time>2014-05-20T16:00:56.000Z</time>
      </trkpt>
      <trkpt lat="45.13308" lon="5.50497">
        <ele>1280.5999755859</ele>
        <time>2014-05-20T16:00:57.000Z</time>
      </trkpt>
      <trkpt lat="45.1331" lon="5.50496">
        <ele>1280</ele>
        <time>2014-05-20T16:00:58.000Z</time>
      </trkpt>
      <trkpt lat="45.13311" lon="5.50495">
        <ele>1279.5999755859</ele>
        <time>2014-05-20T16:00:59.000Z</time>
      </trkpt>
      <trkpt lat="45.13312" lon="5.50494">
        <ele>1279.1999511719</ele>
        <time>2014-05-20T16:01:00.000Z</time>
      </trkpt>
      <trkpt lat="45.13316" lon="5.50491">
        <ele>1279.1999511719</ele>
        <time>2014-05-20T16:01:03.000Z</time>
      </trkpt>
      <trkpt lat="45.13317" lon="5.5049">
        <ele>1278.4000244141</ele>
        <time>2014-05-20T16:01:04.000Z</time>
      </trkpt>
      <trkpt lat="45.13318" lon="5.50488">
        <ele>1277.8000488281</ele>
        <time>2014-05-20T16:01:05.000Z</time>
      </trkpt>
      <trkpt lat="45.13319" lon="5.50487">
        <ele>1277.4000244141</ele>
        <time>2014-05-20T16:01:06.000Z</time>
      </trkpt>
      <trkpt lat="45.1332" lon="5.50486">
        <ele>1277</ele>
        <time>2014-05-20T16:01:07.000Z</time>
      </trkpt>
      <trkpt lat="45.13321" lon="5.50483">
        <ele>1277</ele>
        <time>2014-05-20T16:01:10.000Z</time>
      </trkpt>
      <trkpt lat="45.13324" lon="5.50482">
        <ele>1276.5999755859</ele>
        <time>2014-05-20T16:01:12.000Z</time>
      </trkpt>
      <trkpt lat="45.13325" lon="5.50484">
        <ele>1276.1999511719</ele>
        <time>2014-05-20T16:01:13.000Z</time>
      </trkpt>
      <trkpt lat="45.13328" lon="5.50484">
        <ele>1275.8000488281</ele>
        <time>2014-05-20T16:01:14.000Z</time>
      </trkpt>
      <trkpt lat="45.13329" lon="5.50484">
        <ele>1275.4000244141</ele>
        <time>2014-05-20T16:01:15.000Z</time>
      </trkpt>
      <trkpt lat="45.13329" lon="5.50484">
        <ele>1274.8000488281</ele>
        <time>2014-05-20T16:01:16.000Z</time>
      </trkpt>
      <trkpt lat="45.13329" lon="5.50486">
        <ele>1274.4000244141</ele>
        <time>2014-05-20T16:01:17.000Z</time>
      </trkpt>
      <trkpt lat="45.13328" lon="5.50487">
        <ele>1274</ele>
        <time>2014-05-20T16:01:18.000Z</time>
      </trkpt>
      <trkpt lat="45.13327" lon="5.50489">
        <ele>1273.5999755859</ele>
        <time>2014-05-20T16:01:19.000Z</time>
      </trkpt>
      <trkpt lat="45.13327" lon="5.5049">
        <ele>1273.1999511719</ele>
        <time>2014-05-20T16:01:20.000Z</time>
      </trkpt>
      <trkpt lat="45.13326" lon="5.50492">
        <ele>1272.8000488281</ele>
        <time>2014-05-20T16:01:21.000Z</time>
      </trkpt>
      <trkpt lat="45.13327" lon="5.50495">
        <ele>1272.8000488281</ele>
        <time>2014-05-20T16:01:26.000Z</time>
      </trkpt>
      <trkpt lat="45.13328" lon="5.50497">
        <ele>1272.4000244141</ele>
        <time>2014-05-20T16:01:28.000Z</time>
      </trkpt>
      <trkpt lat="45.13329" lon="5.50498">
        <ele>1271.5999755859</ele>
        <time>2014-05-20T16:01:29.000Z</time>
      </trkpt>
      <trkpt lat="45.13329" lon="5.505">
        <ele>1271.1999511719</ele>
        <time>2014-05-20T16:01:30.000Z</time>
      </trkpt>
      <trkpt lat="45.13329" lon="5.505">
        <ele>1270.8000488281</ele>
        <time>2014-05-20T16:01:31.000Z</time>
      </trkpt>
      <trkpt lat="45.13329" lon="5.505">
        <ele>1270.8000488281</ele>
        <time>2014-05-20T16:01:33.000Z</time>
      </trkpt>
      <trkpt lat="45.13329" lon="5.505">
        <ele>1270.8000488281</ele>
        <time>2014-05-20T16:01:47.000Z</time>
      </trkpt>
      <trkpt lat="45.13328" lon="5.50505">
        <ele>1270.8000488281</ele>
        <time>2014-05-20T16:01:50.000Z</time>
      </trkpt>
      <trkpt lat="45.13328" lon="5.50508">
        <ele>1270.4000244141</ele>
        <time>2014-05-20T16:01:52.000Z</time>
      </trkpt>
      <trkpt lat="45.13328" lon="5.5051">
        <ele>1270</ele>
        <time>2014-05-20T16:01:53.000Z</time>
      </trkpt>
      <trkpt lat="45.13327" lon="5.50512">
        <ele>1269.1999511719</ele>
        <time>2014-05-20T16:01:54.000Z</time>
      </trkpt>
      <trkpt lat="45.13327" lon="5.50514">
        <ele>1268.8000488281</ele>
        <time>2014-05-20T16:01:55.000Z</time>
      </trkpt>
      <trkpt lat="45.13326" lon="5.50518">
        <ele>1268.8000488281</ele>
        <time>2014-05-20T16:01:59.000Z</time>
      </trkpt>
      <trkpt lat="45.13325" lon="5.50521">
        <ele>1268.4000244141</ele>
        <time>2014-05-20T16:02:05.000Z</time>
      </trkpt>
      <trkpt lat="45.13325" lon="5.50523">
        <ele>1268</ele>
        <time>2014-05-20T16:02:06.000Z</time>
      </trkpt>
      <trkpt lat="45.13324" lon="5.50524">
        <ele>1267.5999755859</ele>
        <time>2014-05-20T16:02:07.000Z</time>
      </trkpt>
      <trkpt lat="45.13325" lon="5.50525">
        <ele>1267</ele>
        <time>2014-05-20T16:02:08.000Z</time>
      </trkpt>
      <trkpt lat="45.13325" lon="5.50527">
        <ele>1266.5999755859</ele>
        <time>2014-05-20T16:02:09.000Z</time>
      </trkpt>
      <trkpt lat="45.13325" lon="5.5053">
        <ele>1266.5999755859</ele>
        <time>2014-05-20T16:02:14.000Z</time>
      </trkpt>
      <trkpt lat="45.13323" lon="5.50537">
        <ele>1266.5999755859</ele>
        <time>2014-05-20T16:02:22.000Z</time>
      </trkpt>
      <trkpt lat="45.13322" lon="5.50545">
        <ele>1266.5999755859</ele>
        <time>2014-05-20T16:02:30.000Z</time>
      </trkpt>
      <trkpt lat="45.13322" lon="5.50545">
        <ele>1266.5999755859</ele>
        <time>2014-05-20T16:02:43.000Z</time>
      </trkpt>
      <trkpt lat="45.13322" lon="5.50545">
        <ele>1266.5999755859</ele>
        <time>2014-05-20T16:02:54.000Z</time>
      </trkpt>
      <trkpt lat="45.13322" lon="5.50545">
        <ele>1266.5999755859</ele>
        <time>2014-05-20T16:03:09.000Z</time>
      </trkpt>
      <trkpt lat="45.13322" lon="5.50545">
        <ele>1266.1999511719</ele>
        <time>2014-05-20T16:03:10.000Z</time>
      </trkpt>
      <trkpt lat="45.13322" lon="5.50545">
        <ele>1265.8000488281</ele>
        <time>2014-05-20T16:03:11.000Z</time>
      </trkpt>
      <trkpt lat="45.13322" lon="5.50545">
        <ele>1265.4000244141</ele>
        <time>2014-05-20T16:03:12.000Z</time>
      </trkpt>
      <trkpt lat="45.13322" lon="5.50545">
        <ele>1265</ele>
        <time>2014-05-20T16:03:13.000Z</time>
      </trkpt>
      <trkpt lat="45.13322" lon="5.50545">
        <ele>1264.5999755859</ele>
        <time>2014-05-20T16:03:14.000Z</time>
      </trkpt>
      <trkpt lat="45.13322" lon="5.50545">
        <ele>1264.5999755859</ele>
        <time>2014-05-20T16:03:15.000Z</time>
      </trkpt>
      <trkpt lat="45.13324" lon="5.50542">
        <ele>1264.5999755859</ele>
        <time>2014-05-20T16:03:19.000Z</time>
      </trkpt>
      <trkpt lat="45.13331" lon="5.50538">
        <ele>1264</ele>
        <time>2014-05-20T16:03:25.000Z</time>
      </trkpt>
      <trkpt lat="45.13332" lon="5.50536">
        <ele>1263.5999755859</ele>
        <time>2014-05-20T16:03:26.000Z</time>
      </trkpt>
      <trkpt lat="45.13334" lon="5.50535">
        <ele>1263.1999511719</ele>
        <time>2014-05-20T16:03:27.000Z</time>
      </trkpt>
      <trkpt lat="45.13336" lon="5.50533">
        <ele>1262.8000488281</ele>
        <time>2014-05-20T16:03:28.000Z</time>
      </trkpt>
      <trkpt lat="45.13337" lon="5.50531">
        <ele>1262.4000244141</ele>
        <time>2014-05-20T16:03:29.000Z</time>
      </trkpt>
      <trkpt lat="45.1334" lon="5.50527">
        <ele>1262.4000244141</ele>
        <time>2014-05-20T16:03:31.000Z</time>
      </trkpt>
      <trkpt lat="45.13347" lon="5.50526">
        <ele>1261.4000244141</ele>
        <time>2014-05-20T16:03:34.000Z</time>
      </trkpt>
      <trkpt lat="45.1335" lon="5.50527">
        <ele>1260.8000488281</ele>
        <time>2014-05-20T16:03:35.000Z</time>
      </trkpt>
      <trkpt lat="45.13352" lon="5.50528">
        <ele>1260.4000244141</ele>
        <time>2014-05-20T16:03:36.000Z</time>
      </trkpt>
      <trkpt lat="45.13354" lon="5.50529">
        <ele>1259.8000488281</ele>
        <time>2014-05-20T16:03:37.000Z</time>
      </trkpt>
      <trkpt lat="45.13355" lon="5.5053">
        <ele>1259.1999511719</ele>
        <time>2014-05-20T16:03:38.000Z</time>
      </trkpt>
      <trkpt lat="45.13357" lon="5.50531">
        <ele>1258.5999755859</ele>
        <time>2014-05-20T16:03:39.000Z</time>
      </trkpt>
      <trkpt lat="45.13358" lon="5.50532">
        <ele>1258</ele>
        <time>2014-05-20T16:03:40.000Z</time>
      </trkpt>
      <trkpt lat="45.1336" lon="5.50533">
        <ele>1257.4000244141</ele>
        <time>2014-05-20T16:03:41.000Z</time>
      </trkpt>
      <trkpt lat="45.13361" lon="5.50533">
        <ele>1256.8000488281</ele>
        <time>2014-05-20T16:03:42.000Z</time>
      </trkpt>
      <trkpt lat="45.13362" lon="5.50534">
        <ele>1256.1999511719</ele>
        <time>2014-05-20T16:03:43.000Z</time>
      </trkpt>
      <trkpt lat="45.13363" lon="5.50534">
        <ele>1255.5999755859</ele>
        <time>2014-05-20T16:03:44.000Z</time>
      </trkpt>
      <trkpt lat="45.13365" lon="5.50535">
        <ele>1255</ele>
        <time>2014-05-20T16:03:45.000Z</time>
      </trkpt>
      <trkpt lat="45.13368" lon="5.50533">
        <ele>1255</ele>
        <time>2014-05-20T16:03:48.000Z</time>
      </trkpt>
      <trkpt lat="45.13374" lon="5.50537">
        <ele>1255</ele>
        <time>2014-05-20T16:03:57.000Z</time>
      </trkpt>
      <trkpt lat="45.13375" lon="5.50549">
        <ele>1255</ele>
        <time>2014-05-20T16:04:03.000Z</time>
      </trkpt>
      <trkpt lat="45.13379" lon="5.50559">
        <ele>1255</ele>
        <time>2014-05-20T16:04:10.000Z</time>
      </trkpt>
      <trkpt lat="45.13379" lon="5.50565">
        <ele>1255</ele>
        <time>2014-05-20T16:04:18.000Z</time>
      </trkpt>
      <trkpt lat="45.1338" lon="5.5057">
        <ele>1255</ele>
        <time>2014-05-20T16:04:25.000Z</time>
      </trkpt>
      <trkpt lat="45.13384" lon="5.50579">
        <ele>1255</ele>
        <time>2014-05-20T16:04:31.000Z</time>
      </trkpt>
      <trkpt lat="45.13388" lon="5.50587">
        <ele>1255</ele>
        <time>2014-05-20T16:04:36.000Z</time>
      </trkpt>
      <trkpt lat="45.13388" lon="5.50589">
        <ele>1255</ele>
        <time>2014-05-20T16:04:37.000Z</time>
      </trkpt>
      <trkpt lat="45.1339" lon="5.50597">
        <ele>1255</ele>
        <time>2014-05-20T16:04:41.000Z</time>
      </trkpt>
      <trkpt lat="45.1339" lon="5.50601">
        <ele>1255</ele>
        <time>2014-05-20T16:04:43.000Z</time>
      </trkpt>
      <trkpt lat="45.13393" lon="5.5061">
        <ele>1255.4000244141</ele>
        <time>2014-05-20T16:04:47.000Z</time>
      </trkpt>
      <trkpt lat="45.13393" lon="5.50611">
        <ele>1256.1999511719</ele>
        <time>2014-05-20T16:04:48.000Z</time>
      </trkpt>
      <trkpt lat="45.13394" lon="5.50612">
        <ele>1256.5999755859</ele>
        <time>2014-05-20T16:04:49.000Z</time>
      </trkpt>
      <trkpt lat="45.13394" lon="5.50614">
        <ele>1257</ele>
        <time>2014-05-20T16:04:50.000Z</time>
      </trkpt>
      <trkpt lat="45.13395" lon="5.50614">
        <ele>1257</ele>
        <time>2014-05-20T16:04:57.000Z</time>
      </trkpt>
      <trkpt lat="45.13395" lon="5.50616">
        <ele>1257</ele>
        <time>2014-05-20T16:05:03.000Z</time>
      </trkpt>
      <trkpt lat="45.13396" lon="5.50622">
        <ele>1257</ele>
        <time>2014-05-20T16:05:09.000Z</time>
      </trkpt>
      <trkpt lat="45.13395" lon="5.50623">
        <ele>1257</ele>
        <time>2014-05-20T16:05:17.000Z</time>
      </trkpt>
      <trkpt lat="45.13396" lon="5.50629">
        <ele>1257</ele>
        <time>2014-05-20T16:05:24.000Z</time>
      </trkpt>
      <trkpt lat="45.13398" lon="5.50634">
        <ele>1257</ele>
        <time>2014-05-20T16:05:30.000Z</time>
      </trkpt>
      <trkpt lat="45.13398" lon="5.50635">
        <ele>1257</ele>
        <time>2014-05-20T16:05:35.000Z</time>
      </trkpt>
      <trkpt lat="45.13397" lon="5.50636">
        <ele>1257</ele>
        <time>2014-05-20T16:05:42.000Z</time>
      </trkpt>
      <trkpt lat="45.13397" lon="5.50636">
        <ele>1257.4000244141</ele>
        <time>2014-05-20T16:05:44.000Z</time>
      </trkpt>
      <trkpt lat="45.13397" lon="5.50636">
        <ele>1258</ele>
        <time>2014-05-20T16:05:45.000Z</time>
      </trkpt>
      <trkpt lat="45.13397" lon="5.50636">
        <ele>1257.4000244141</ele>
        <time>2014-05-20T16:05:46.000Z</time>
      </trkpt>
      <trkpt lat="45.13397" lon="5.50636">
        <ele>1257</ele>
        <time>2014-05-20T16:05:47.000Z</time>
      </trkpt>
      <trkpt lat="45.13397" lon="5.50636">
        <ele>1257.1999511719</ele>
        <time>2014-05-20T16:05:48.000Z</time>
      </trkpt>
      <trkpt lat="45.13397" lon="5.50636">
        <ele>1257.8000488281</ele>
        <time>2014-05-20T16:05:49.000Z</time>
      </trkpt>
      <trkpt lat="45.13397" lon="5.50636">
        <ele>1258.4000244141</ele>
        <time>2014-05-20T16:05:50.000Z</time>
      </trkpt>
      <trkpt lat="45.13397" lon="5.50636">
        <ele>1258.4000244141</ele>
        <time>2014-05-20T16:05:51.000Z</time>
      </trkpt>
      <trkpt lat="45.13397" lon="5.50636">
        <ele>1258.4000244141</ele>
        <time>2014-05-20T16:05:52.000Z</time>
      </trkpt>
      <trkpt lat="45.13397" lon="5.50636">
        <ele>1258.4000244141</ele>
        <time>2014-05-20T16:05:53.000Z</time>
      </trkpt>
      <trkpt lat="45.13397" lon="5.50636">
        <ele>1258.4000244141</ele>
        <time>2014-05-20T16:05:54.000Z</time>
      </trkpt>
      <trkpt lat="45.13397" lon="5.50636">
        <ele>1258.4000244141</ele>
        <time>2014-05-20T16:05:55.000Z</time>
      </trkpt>
      <trkpt lat="45.13398" lon="5.50635">
        <ele>1258.4000244141</ele>
        <time>2014-05-20T16:06:01.000Z</time>
      </trkpt>
      <trkpt lat="45.134" lon="5.50642">
        <ele>1258.4000244141</ele>
        <time>2014-05-20T16:06:08.000Z</time>
      </trkpt>
      <trkpt lat="45.13401" lon="5.50648">
        <ele>1258.4000244141</ele>
        <time>2014-05-20T16:06:14.000Z</time>
      </trkpt>
      <trkpt lat="45.13403" lon="5.5065">
        <ele>1258.4000244141</ele>
        <time>2014-05-20T16:06:20.000Z</time>
      </trkpt>
      <trkpt lat="45.13403" lon="5.50652">
        <ele>1258.4000244141</ele>
        <time>2014-05-20T16:06:28.000Z</time>
      </trkpt>
      <trkpt lat="45.13403" lon="5.50654">
        <ele>1258.4000244141</ele>
        <time>2014-05-20T16:06:36.000Z</time>
      </trkpt>
      <trkpt lat="45.13403" lon="5.50654">
        <ele>1258.4000244141</ele>
        <time>2014-05-20T16:06:50.000Z</time>
      </trkpt>
      <trkpt lat="45.13403" lon="5.50654">
        <ele>1258.4000244141</ele>
        <time>2014-05-20T16:07:07.000Z</time>
      </trkpt>
      <trkpt lat="45.13404" lon="5.50654">
        <ele>1258.4000244141</ele>
        <time>2014-05-20T16:07:21.000Z</time>
      </trkpt>
      <trkpt lat="45.13404" lon="5.50654">
        <ele>1258.4000244141</ele>
        <time>2014-05-20T16:07:35.000Z</time>
      </trkpt>
      <trkpt lat="45.13404" lon="5.50654">
        <ele>1258.4000244141</ele>
        <time>2014-05-20T16:07:52.000Z</time>
      </trkpt>
      <trkpt lat="45.13405" lon="5.50654">
        <ele>1258.4000244141</ele>
        <time>2014-05-20T16:08:07.000Z</time>
      </trkpt>
      <trkpt lat="45.13405" lon="5.50654">
        <ele>1258.4000244141</ele>
        <time>2014-05-20T16:08:22.000Z</time>
      </trkpt>
      <trkpt lat="45.13405" lon="5.50654">
        <ele>1258.4000244141</ele>
        <time>2014-05-20T16:08:37.000Z</time>
      </trkpt>
      <trkpt lat="45.13405" lon="5.50654">
        <ele>1258.4000244141</ele>
        <time>2014-05-20T16:08:56.000Z</time>
      </trkpt>
      <trkpt lat="45.13405" lon="5.50654">
        <ele>1258.4000244141</ele>
        <time>2014-05-20T16:09:11.000Z</time>
      </trkpt>
      <trkpt lat="45.13405" lon="5.50654">
        <ele>1258.4000244141</ele>
        <time>2014-05-20T16:09:31.000Z</time>
      </trkpt>
      <trkpt lat="45.13405" lon="5.50654">
        <ele>1258.4000244141</ele>
        <time>2014-05-20T16:09:49.000Z</time>
      </trkpt>
      <trkpt lat="45.13405" lon="5.50655">
        <ele>1258.4000244141</ele>
        <time>2014-05-20T16:10:03.000Z</time>
      </trkpt>
      <trkpt lat="45.13405" lon="5.50655">
        <ele>1258.4000244141</ele>
        <time>2014-05-20T16:10:19.000Z</time>
      </trkpt>
      <trkpt lat="45.13406" lon="5.50654">
        <ele>1258.4000244141</ele>
        <time>2014-05-20T16:10:35.000Z</time>
      </trkpt>
      <trkpt lat="45.13406" lon="5.50654">
        <ele>1258.4000244141</ele>
        <time>2014-05-20T16:10:49.000Z</time>
      </trkpt>
      <trkpt lat="45.13406" lon="5.50654">
        <ele>1258.4000244141</ele>
        <time>2014-05-20T16:11:02.000Z</time>
      </trkpt>
      <trkpt lat="45.13406" lon="5.50654">
        <ele>1258.4000244141</ele>
        <time>2014-05-20T16:11:16.000Z</time>
      </trkpt>
      <trkpt lat="45.13406" lon="5.50654">
        <ele>1258.4000244141</ele>
        <time>2014-05-20T16:11:32.000Z</time>
      </trkpt>
      <trkpt lat="45.13406" lon="5.50654">
        <ele>1258.4000244141</ele>
        <time>2014-05-20T16:11:48.000Z</time>
      </trkpt>
      <trkpt lat="45.13406" lon="5.50654">
        <ele>1258.4000244141</ele>
        <time>2014-05-20T16:12:00.000Z</time>
      </trkpt>
      <trkpt lat="45.13406" lon="5.50654">
        <ele>1258.4000244141</ele>
        <time>2014-05-20T16:12:13.000Z</time>
      </trkpt>
      <trkpt lat="45.13406" lon="5.50651">
        <ele>1258.4000244141</ele>
        <time>2014-05-20T16:12:20.000Z</time>
      </trkpt>
      <trkpt lat="45.13403" lon="5.50649">
        <ele>1258.8000488281</ele>
        <time>2014-05-20T16:12:24.000Z</time>
      </trkpt>
      <trkpt lat="45.13402" lon="5.50649">
        <ele>1259.1999511719</ele>
        <time>2014-05-20T16:12:25.000Z</time>
      </trkpt>
      <trkpt lat="45.13401" lon="5.50649">
        <ele>1259.5999755859</ele>
        <time>2014-05-20T16:12:26.000Z</time>
      </trkpt>
      <trkpt lat="45.13401" lon="5.50649">
        <ele>1260</ele>
        <time>2014-05-20T16:12:27.000Z</time>
      </trkpt>
      <trkpt lat="45.13401" lon="5.50649">
        <ele>1260.4000244141</ele>
        <time>2014-05-20T16:12:28.000Z</time>
      </trkpt>
      <trkpt lat="45.13402" lon="5.5065">
        <ele>1260.4000244141</ele>
        <time>2014-05-20T16:12:31.000Z</time>
      </trkpt>
      <trkpt lat="45.13403" lon="5.50652">
        <ele>1260.4000244141</ele>
        <time>2014-05-20T16:12:32.000Z</time>
      </trkpt>
      <trkpt lat="45.13405" lon="5.50656">
        <ele>1260</ele>
        <time>2014-05-20T16:12:34.000Z</time>
      </trkpt>
      <trkpt lat="45.13405" lon="5.50658">
        <ele>1259.4000244141</ele>
        <time>2014-05-20T16:12:35.000Z</time>
      </trkpt>
      <trkpt lat="45.13405" lon="5.50658">
        <ele>1258.5999755859</ele>
        <time>2014-05-20T16:12:36.000Z</time>
      </trkpt>
      <trkpt lat="45.13405" lon="5.50659">
        <ele>1258.1999511719</ele>
        <time>2014-05-20T16:12:37.000Z</time>
      </trkpt>
      <trkpt lat="45.13411" lon="5.50665">
        <ele>1258.1999511719</ele>
        <time>2014-05-20T16:12:43.000Z</time>
      </trkpt>
      <trkpt lat="45.13412" lon="5.50668">
        <ele>1257.5999755859</ele>
        <time>2014-05-20T16:12:45.000Z</time>
      </trkpt>
      <trkpt lat="45.13413" lon="5.50669">
        <ele>1257.1999511719</ele>
        <time>2014-05-20T16:12:46.000Z</time>
      </trkpt>
      <trkpt lat="45.13414" lon="5.5067">
        <ele>1256.8000488281</ele>
        <time>2014-05-20T16:12:47.000Z</time>
      </trkpt>
      <trkpt lat="45.13415" lon="5.50671">
        <ele>1256.4000244141</ele>
        <time>2014-05-20T16:12:48.000Z</time>
      </trkpt>
      <trkpt lat="45.13417" lon="5.50672">
        <ele>1256</ele>
        <time>2014-05-20T16:12:49.000Z</time>
      </trkpt>
      <trkpt lat="45.13418" lon="5.50673">
        <ele>1256</ele>
        <time>2014-05-20T16:12:51.000Z</time>
      </trkpt>
      <trkpt lat="45.13418" lon="5.50678">
        <ele>1255.4000244141</ele>
        <time>2014-05-20T16:12:54.000Z</time>
      </trkpt>
      <trkpt lat="45.13418" lon="5.5068">
        <ele>1255</ele>
        <time>2014-05-20T16:12:55.000Z</time>
      </trkpt>
      <trkpt lat="45.13417" lon="5.50683">
        <ele>1254.5999755859</ele>
        <time>2014-05-20T16:12:56.000Z</time>
      </trkpt>
      <trkpt lat="45.13418" lon="5.50686">
        <ele>1254</ele>
        <time>2014-05-20T16:12:57.000Z</time>
      </trkpt>
      <trkpt lat="45.13418" lon="5.50686">
        <ele>1253.5999755859</ele>
        <time>2014-05-20T16:12:58.000Z</time>
      </trkpt>
      <trkpt lat="45.13418" lon="5.50689">
        <ele>1253.1999511719</ele>
        <time>2014-05-20T16:12:59.000Z</time>
      </trkpt>
      <trkpt lat="45.13418" lon="5.5069">
        <ele>1252.5999755859</ele>
        <time>2014-05-20T16:13:00.000Z</time>
      </trkpt>
      <trkpt lat="45.13418" lon="5.50691">
        <ele>1251.8000488281</ele>
        <time>2014-05-20T16:13:01.000Z</time>
      </trkpt>
      <trkpt lat="45.13418" lon="5.50691">
        <ele>1251.4000244141</ele>
        <time>2014-05-20T16:13:02.000Z</time>
      </trkpt>
      <trkpt lat="45.13418" lon="5.50695">
        <ele>1251</ele>
        <time>2014-05-20T16:13:05.000Z</time>
      </trkpt>
      <trkpt lat="45.13417" lon="5.50696">
        <ele>1250.5999755859</ele>
        <time>2014-05-20T16:13:06.000Z</time>
      </trkpt>
      <trkpt lat="45.13415" lon="5.50697">
        <ele>1250.1999511719</ele>
        <time>2014-05-20T16:13:07.000Z</time>
      </trkpt>
      <trkpt lat="45.13414" lon="5.50699">
        <ele>1249.8000488281</ele>
        <time>2014-05-20T16:13:08.000Z</time>
      </trkpt>
      <trkpt lat="45.13413" lon="5.50701">
        <ele>1249.4000244141</ele>
        <time>2014-05-20T16:13:09.000Z</time>
      </trkpt>
      <trkpt lat="45.13412" lon="5.50705">
        <ele>1249.4000244141</ele>
        <time>2014-05-20T16:13:10.000Z</time>
      </trkpt>
      <trkpt lat="45.13412" lon="5.5071">
        <ele>1248.8000488281</ele>
        <time>2014-05-20T16:13:12.000Z</time>
      </trkpt>
      <trkpt lat="45.13412" lon="5.50712">
        <ele>1248.4000244141</ele>
        <time>2014-05-20T16:13:13.000Z</time>
      </trkpt>
      <trkpt lat="45.13411" lon="5.50714">
        <ele>1247.8000488281</ele>
        <time>2014-05-20T16:13:14.000Z</time>
      </trkpt>
      <trkpt lat="45.1341" lon="5.50716">
        <ele>1247.1999511719</ele>
        <time>2014-05-20T16:13:15.000Z</time>
      </trkpt>
      <trkpt lat="45.13409" lon="5.50717">
        <ele>1246.8000488281</ele>
        <time>2014-05-20T16:13:16.000Z</time>
      </trkpt>
      <trkpt lat="45.13408" lon="5.50718">
        <ele>1246.1999511719</ele>
        <time>2014-05-20T16:13:17.000Z</time>
      </trkpt>
      <trkpt lat="45.13407" lon="5.50719">
        <ele>1245.5999755859</ele>
        <time>2014-05-20T16:13:18.000Z</time>
      </trkpt>
      <trkpt lat="45.13406" lon="5.5072">
        <ele>1245</ele>
        <time>2014-05-20T16:13:19.000Z</time>
      </trkpt>
      <trkpt lat="45.13405" lon="5.5072">
        <ele>1244.5999755859</ele>
        <time>2014-05-20T16:13:20.000Z</time>
      </trkpt>
      <trkpt lat="45.13405" lon="5.5072">
        <ele>1244.5999755859</ele>
        <time>2014-05-20T16:13:27.000Z</time>
      </trkpt>
      <trkpt lat="45.13406" lon="5.50724">
        <ele>1244.5999755859</ele>
        <time>2014-05-20T16:13:34.000Z</time>
      </trkpt>
      <trkpt lat="45.13408" lon="5.50728">
        <ele>1244</ele>
        <time>2014-05-20T16:13:40.000Z</time>
      </trkpt>
      <trkpt lat="45.13408" lon="5.50728">
        <ele>1243.5999755859</ele>
        <time>2014-05-20T16:13:41.000Z</time>
      </trkpt>
      <trkpt lat="45.13408" lon="5.50728">
        <ele>1243.1999511719</ele>
        <time>2014-05-20T16:13:42.000Z</time>
      </trkpt>
      <trkpt lat="45.13408" lon="5.50728">
        <ele>1242.8000488281</ele>
        <time>2014-05-20T16:13:43.000Z</time>
      </trkpt>
      <trkpt lat="45.13408" lon="5.50728">
        <ele>1242.1999511719</ele>
        <time>2014-05-20T16:13:44.000Z</time>
      </trkpt>
      <trkpt lat="45.13407" lon="5.50732">
        <ele>1241.8000488281</ele>
        <time>2014-05-20T16:13:47.000Z</time>
      </trkpt>
      <trkpt lat="45.13407" lon="5.50734">
        <ele>1241.4000244141</ele>
        <time>2014-05-20T16:13:48.000Z</time>
      </trkpt>
      <trkpt lat="45.13407" lon="5.50734">
        <ele>1240.8000488281</ele>
        <time>2014-05-20T16:13:49.000Z</time>
      </trkpt>
      <trkpt lat="45.13407" lon="5.50737">
        <ele>1239.8000488281</ele>
        <time>2014-05-20T16:13:50.000Z</time>
      </trkpt>
      <trkpt lat="45.13406" lon="5.50739">
        <ele>1239.8000488281</ele>
        <time>2014-05-20T16:13:55.000Z</time>
      </trkpt>
      <trkpt lat="45.13406" lon="5.50739">
        <ele>1239.8000488281</ele>
        <time>2014-05-20T16:14:08.000Z</time>
      </trkpt>
      <trkpt lat="45.13406" lon="5.50741">
        <ele>1239.8000488281</ele>
        <time>2014-05-20T16:14:20.000Z</time>
      </trkpt>
      <trkpt lat="45.13406" lon="5.50743">
        <ele>1239.8000488281</ele>
        <time>2014-05-20T16:14:27.000Z</time>
      </trkpt>
      <trkpt lat="45.13406" lon="5.50748">
        <ele>1239.8000488281</ele>
        <time>2014-05-20T16:14:34.000Z</time>
      </trkpt>
      <trkpt lat="45.13405" lon="5.5075">
        <ele>1239.4000244141</ele>
        <time>2014-05-20T16:14:36.000Z</time>
      </trkpt>
      <trkpt lat="45.13405" lon="5.50752">
        <ele>1239</ele>
        <time>2014-05-20T16:14:37.000Z</time>
      </trkpt>
      <trkpt lat="45.13405" lon="5.50753">
        <ele>1238.5999755859</ele>
        <time>2014-05-20T16:14:38.000Z</time>
      </trkpt>
      <trkpt lat="45.13405" lon="5.50753">
        <ele>1237.8000488281</ele>
        <time>2014-05-20T16:14:39.000Z</time>
      </trkpt>
      <trkpt lat="45.13405" lon="5.50756">
        <ele>1237.8000488281</ele>
        <time>2014-05-20T16:14:41.000Z</time>
      </trkpt>
      <trkpt lat="45.13404" lon="5.50763">
        <ele>1237.4000244141</ele>
        <time>2014-05-20T16:14:43.000Z</time>
      </trkpt>
      <trkpt lat="45.13404" lon="5.50765">
        <ele>1237</ele>
        <time>2014-05-20T16:14:44.000Z</time>
      </trkpt>
      <trkpt lat="45.13404" lon="5.50767">
        <ele>1236.5999755859</ele>
        <time>2014-05-20T16:14:45.000Z</time>
      </trkpt>
      <trkpt lat="45.13405" lon="5.5077">
        <ele>1236.1999511719</ele>
        <time>2014-05-20T16:14:46.000Z</time>
      </trkpt>
      <trkpt lat="45.13407" lon="5.50771">
        <ele>1235.8000488281</ele>
        <time>2014-05-20T16:14:47.000Z</time>
      </trkpt>
      <trkpt lat="45.13419" lon="5.50782">
        <ele>1235.8000488281</ele>
        <time>2014-05-20T16:14:55.000Z</time>
      </trkpt>
      <trkpt lat="45.13422" lon="5.50783">
        <ele>1235.4000244141</ele>
        <time>2014-05-20T16:14:56.000Z</time>
      </trkpt>
      <trkpt lat="45.13425" lon="5.50784">
        <ele>1235</ele>
        <time>2014-05-20T16:14:57.000Z</time>
      </trkpt>
      <trkpt lat="45.13428" lon="5.50785">
        <ele>1234.5999755859</ele>
        <time>2014-05-20T16:14:58.000Z</time>
      </trkpt>
      <trkpt lat="45.13431" lon="5.50786">
        <ele>1234</ele>
        <time>2014-05-20T16:14:59.000Z</time>
      </trkpt>
      <trkpt lat="45.13435" lon="5.50785">
        <ele>1233.5999755859</ele>
        <time>2014-05-20T16:15:00.000Z</time>
      </trkpt>
      <trkpt lat="45.13438" lon="5.50786">
        <ele>1233.5999755859</ele>
        <time>2014-05-20T16:15:01.000Z</time>
      </trkpt>
      <trkpt lat="45.13443" lon="5.50785">
        <ele>1233.5999755859</ele>
        <time>2014-05-20T16:15:03.000Z</time>
      </trkpt>
      <trkpt lat="45.13448" lon="5.50785">
        <ele>1233.5999755859</ele>
        <time>2014-05-20T16:15:06.000Z</time>
      </trkpt>
      <trkpt lat="45.13452" lon="5.50785">
        <ele>1233.1999511719</ele>
        <time>2014-05-20T16:15:08.000Z</time>
      </trkpt>
      <trkpt lat="45.13453" lon="5.50786">
        <ele>1232.8000488281</ele>
        <time>2014-05-20T16:15:09.000Z</time>
      </trkpt>
      <trkpt lat="45.13454" lon="5.50787">
        <ele>1232.4000244141</ele>
        <time>2014-05-20T16:15:10.000Z</time>
      </trkpt>
      <trkpt lat="45.13455" lon="5.50789">
        <ele>1232</ele>
        <time>2014-05-20T16:15:11.000Z</time>
      </trkpt>
      <trkpt lat="45.13458" lon="5.5079">
        <ele>1231.5999755859</ele>
        <time>2014-05-20T16:15:12.000Z</time>
      </trkpt>
      <trkpt lat="45.1346" lon="5.50791">
        <ele>1231.1999511719</ele>
        <time>2014-05-20T16:15:13.000Z</time>
      </trkpt>
      <trkpt lat="45.13462" lon="5.50791">
        <ele>1230.8000488281</ele>
        <time>2014-05-20T16:15:14.000Z</time>
      </trkpt>
      <trkpt lat="45.13464" lon="5.50791">
        <ele>1230.4000244141</ele>
        <time>2014-05-20T16:15:15.000Z</time>
      </trkpt>
      <trkpt lat="45.13465" lon="5.50791">
        <ele>1230</ele>
        <time>2014-05-20T16:15:16.000Z</time>
      </trkpt>
      <trkpt lat="45.13466" lon="5.50791">
        <ele>1229.5999755859</ele>
        <time>2014-05-20T16:15:17.000Z</time>
      </trkpt>
      <trkpt lat="45.13469" lon="5.50792">
        <ele>1229.5999755859</ele>
        <time>2014-05-20T16:15:19.000Z</time>
      </trkpt>
      <trkpt lat="45.13472" lon="5.50798">
        <ele>1229.5999755859</ele>
        <time>2014-05-20T16:15:27.000Z</time>
      </trkpt>
      <trkpt lat="45.13472" lon="5.50801">
        <ele>1228.5999755859</ele>
        <time>2014-05-20T16:15:29.000Z</time>
      </trkpt>
      <trkpt lat="45.13472" lon="5.50802">
        <ele>1228.1999511719</ele>
        <time>2014-05-20T16:15:30.000Z</time>
      </trkpt>
      <trkpt lat="45.13472" lon="5.50803">
        <ele>1227.8000488281</ele>
        <time>2014-05-20T16:15:31.000Z</time>
      </trkpt>
      <trkpt lat="45.13472" lon="5.50805">
        <ele>1227.4000244141</ele>
        <time>2014-05-20T16:15:32.000Z</time>
      </trkpt>
      <trkpt lat="45.13471" lon="5.50806">
        <ele>1227.4000244141</ele>
        <time>2014-05-20T16:15:33.000Z</time>
      </trkpt>
      <trkpt lat="45.13468" lon="5.50815">
        <ele>1226.8000488281</ele>
        <time>2014-05-20T16:15:39.000Z</time>
      </trkpt>
      <trkpt lat="45.13468" lon="5.50816">
        <ele>1226.4000244141</ele>
        <time>2014-05-20T16:15:40.000Z</time>
      </trkpt>
      <trkpt lat="45.13468" lon="5.50816">
        <ele>1226</ele>
        <time>2014-05-20T16:15:41.000Z</time>
      </trkpt>
      <trkpt lat="45.13468" lon="5.50816">
        <ele>1225.5999755859</ele>
        <time>2014-05-20T16:15:42.000Z</time>
      </trkpt>
      <trkpt lat="45.13468" lon="5.50816">
        <ele>1225.1999511719</ele>
        <time>2014-05-20T16:15:43.000Z</time>
      </trkpt>
      <trkpt lat="45.13468" lon="5.50816">
        <ele>1225.1999511719</ele>
        <time>2014-05-20T16:15:48.000Z</time>
      </trkpt>
      <trkpt lat="45.13468" lon="5.50816">
        <ele>1225.1999511719</ele>
        <time>2014-05-20T16:16:00.000Z</time>
      </trkpt>
      <trkpt lat="45.13468" lon="5.50816">
        <ele>1225.1999511719</ele>
        <time>2014-05-20T16:16:13.000Z</time>
      </trkpt>
      <trkpt lat="45.13468" lon="5.50816">
        <ele>1225.1999511719</ele>
        <time>2014-05-20T16:16:24.000Z</time>
      </trkpt>
      <trkpt lat="45.13468" lon="5.50825">
        <ele>1225.1999511719</ele>
        <time>2014-05-20T16:16:30.000Z</time>
      </trkpt>
      <trkpt lat="45.13467" lon="5.50827">
        <ele>1224.8000488281</ele>
        <time>2014-05-20T16:16:37.000Z</time>
      </trkpt>
      <trkpt lat="45.13467" lon="5.50827">
        <ele>1224.1999511719</ele>
        <time>2014-05-20T16:16:38.000Z</time>
      </trkpt>
      <trkpt lat="45.13467" lon="5.50828">
        <ele>1223.8000488281</ele>
        <time>2014-05-20T16:16:39.000Z</time>
      </trkpt>
      <trkpt lat="45.13468" lon="5.5083">
        <ele>1223.4000244141</ele>
        <time>2014-05-20T16:16:40.000Z</time>
      </trkpt>
      <trkpt lat="45.13468" lon="5.50832">
        <ele>1223</ele>
        <time>2014-05-20T16:16:41.000Z</time>
      </trkpt>
      <trkpt lat="45.13468" lon="5.50835">
        <ele>1223</ele>
        <time>2014-05-20T16:16:45.000Z</time>
      </trkpt>
      <trkpt lat="45.13468" lon="5.50835">
        <ele>1223</ele>
        <time>2014-05-20T16:16:56.000Z</time>
      </trkpt>
      <trkpt lat="45.1347" lon="5.50839">
        <ele>1223</ele>
        <time>2014-05-20T16:17:02.000Z</time>
      </trkpt>
      <trkpt lat="45.1347" lon="5.50839">
        <ele>1223</ele>
        <time>2014-05-20T16:17:14.000Z</time>
      </trkpt>
      <trkpt lat="45.1347" lon="5.50839">
        <ele>1223</ele>
        <time>2014-05-20T16:17:32.000Z</time>
      </trkpt>
      <trkpt lat="45.1347" lon="5.50838">
        <ele>1223</ele>
        <time>2014-05-20T16:17:47.000Z</time>
      </trkpt>
      <trkpt lat="45.1347" lon="5.50838">
        <ele>1223</ele>
        <time>2014-05-20T16:18:03.000Z</time>
      </trkpt>
      <trkpt lat="45.1347" lon="5.50838">
        <ele>1223</ele>
        <time>2014-05-20T16:18:19.000Z</time>
      </trkpt>
      <trkpt lat="45.1347" lon="5.50839">
        <ele>1223</ele>
        <time>2014-05-20T16:18:35.000Z</time>
      </trkpt>
      <trkpt lat="45.1347" lon="5.50839">
        <ele>1223</ele>
        <time>2014-05-20T16:18:51.000Z</time>
      </trkpt>
      <trkpt lat="45.1347" lon="5.50839">
        <ele>1223</ele>
        <time>2014-05-20T16:19:11.000Z</time>
      </trkpt>
      <trkpt lat="45.1347" lon="5.50839">
        <ele>1223</ele>
        <time>2014-05-20T16:19:31.000Z</time>
      </trkpt>
      <trkpt lat="45.1347" lon="5.50839">
        <ele>1223</ele>
        <time>2014-05-20T16:19:51.000Z</time>
      </trkpt>
      <trkpt lat="45.1347" lon="5.50839">
        <ele>1223</ele>
        <time>2014-05-20T16:20:10.000Z</time>
      </trkpt>
      <trkpt lat="45.13471" lon="5.50839">
        <ele>1223</ele>
        <time>2014-05-20T16:20:30.000Z</time>
      </trkpt>
      <trkpt lat="45.13468" lon="5.50839">
        <ele>1223</ele>
        <time>2014-05-20T16:20:40.000Z</time>
      </trkpt>
      <trkpt lat="45.13466" lon="5.5084">
        <ele>1223</ele>
        <time>2014-05-20T16:20:47.000Z</time>
      </trkpt>
      <trkpt lat="45.13465" lon="5.50849">
        <ele>1223</ele>
        <time>2014-05-20T16:20:52.000Z</time>
      </trkpt>
      <trkpt lat="45.13464" lon="5.50852">
        <ele>1222.5999755859</ele>
        <time>2014-05-20T16:20:53.000Z</time>
      </trkpt>
      <trkpt lat="45.13462" lon="5.50854">
        <ele>1222.1999511719</ele>
        <time>2014-05-20T16:20:54.000Z</time>
      </trkpt>
      <trkpt lat="45.1346" lon="5.50856">
        <ele>1221.8000488281</ele>
        <time>2014-05-20T16:20:55.000Z</time>
      </trkpt>
      <trkpt lat="45.13459" lon="5.50857">
        <ele>1221.4000244141</ele>
        <time>2014-05-20T16:20:56.000Z</time>
      </trkpt>
      <trkpt lat="45.13458" lon="5.50857">
        <ele>1220.8000488281</ele>
        <time>2014-05-20T16:20:57.000Z</time>
      </trkpt>
      <trkpt lat="45.1345" lon="5.50867">
        <ele>1220.8000488281</ele>
        <time>2014-05-20T16:21:06.000Z</time>
      </trkpt>
      <trkpt lat="45.13448" lon="5.5087">
        <ele>1220.8000488281</ele>
        <time>2014-05-20T16:21:09.000Z</time>
      </trkpt>
      <trkpt lat="45.13445" lon="5.50872">
        <ele>1220.8000488281</ele>
        <time>2014-05-20T16:21:11.000Z</time>
      </trkpt>
      <trkpt lat="45.13442" lon="5.50875">
        <ele>1220.4000244141</ele>
        <time>2014-05-20T16:21:14.000Z</time>
      </trkpt>
      <trkpt lat="45.13442" lon="5.50876">
        <ele>1219.5999755859</ele>
        <time>2014-05-20T16:21:15.000Z</time>
      </trkpt>
      <trkpt lat="45.13441" lon="5.50878">
        <ele>1219.1999511719</ele>
        <time>2014-05-20T16:21:16.000Z</time>
      </trkpt>
      <trkpt lat="45.1344" lon="5.50879">
        <ele>1218.5999755859</ele>
        <time>2014-05-20T16:21:17.000Z</time>
      </trkpt>
      <trkpt lat="45.13434" lon="5.50887">
        <ele>1218.1999511719</ele>
        <time>2014-05-20T16:21:23.000Z</time>
      </trkpt>
      <trkpt lat="45.13433" lon="5.50888">
        <ele>1217.5999755859</ele>
        <time>2014-05-20T16:21:24.000Z</time>
      </trkpt>
      <trkpt lat="45.13433" lon="5.50891">
        <ele>1217.1999511719</ele>
        <time>2014-05-20T16:21:25.000Z</time>
      </trkpt>
      <trkpt lat="45.13431" lon="5.50893">
        <ele>1216.5999755859</ele>
        <time>2014-05-20T16:21:26.000Z</time>
      </trkpt>
      <trkpt lat="45.13429" lon="5.50896">
        <ele>1216.1999511719</ele>
        <time>2014-05-20T16:21:27.000Z</time>
      </trkpt>
      <trkpt lat="45.13427" lon="5.50899">
        <ele>1215.8000488281</ele>
        <time>2014-05-20T16:21:29.000Z</time>
      </trkpt>
      <trkpt lat="45.13425" lon="5.50901">
        <ele>1215.4000244141</ele>
        <time>2014-05-20T16:21:30.000Z</time>
      </trkpt>
      <trkpt lat="45.13423" lon="5.50902">
        <ele>1215</ele>
        <time>2014-05-20T16:21:31.000Z</time>
      </trkpt>
      <trkpt lat="45.13421" lon="5.50904">
        <ele>1214.5999755859</ele>
        <time>2014-05-20T16:21:32.000Z</time>
      </trkpt>
      <trkpt lat="45.13419" lon="5.50905">
        <ele>1214.1999511719</ele>
        <time>2014-05-20T16:21:33.000Z</time>
      </trkpt>
      <trkpt lat="45.1341" lon="5.50908">
        <ele>1214.1999511719</ele>
        <time>2014-05-20T16:21:37.000Z</time>
      </trkpt>
      <trkpt lat="45.13397" lon="5.50912">
        <ele>1214.1999511719</ele>
        <time>2014-05-20T16:21:43.000Z</time>
      </trkpt>
      <trkpt lat="45.13397" lon="5.50912">
        <ele>1214.1999511719</ele>
        <time>2014-05-20T16:21:52.000Z</time>
      </trkpt>
      <trkpt lat="45.13396" lon="5.50912">
        <ele>1214.1999511719</ele>
        <time>2014-05-20T16:21:58.000Z</time>
      </trkpt>
      <trkpt lat="45.1339" lon="5.50911">
        <ele>1214.1999511719</ele>
        <time>2014-05-20T16:22:03.000Z</time>
      </trkpt>
      <trkpt lat="45.13382" lon="5.5091">
        <ele>1214.1999511719</ele>
        <time>2014-05-20T16:22:09.000Z</time>
      </trkpt>
      <trkpt lat="45.13374" lon="5.50913">
        <ele>1214.1999511719</ele>
        <time>2014-05-20T16:22:15.000Z</time>
      </trkpt>
      <trkpt lat="45.13369" lon="5.50912">
        <ele>1214.1999511719</ele>
        <time>2014-05-20T16:22:23.000Z</time>
      </trkpt>
      <trkpt lat="45.13366" lon="5.50912">
        <ele>1214.1999511719</ele>
        <time>2014-05-20T16:22:30.000Z</time>
      </trkpt>
      <trkpt lat="45.13363" lon="5.50907">
        <ele>1214.1999511719</ele>
        <time>2014-05-20T16:22:36.000Z</time>
      </trkpt>
      <trkpt lat="45.13363" lon="5.50907">
        <ele>1214.1999511719</ele>
        <time>2014-05-20T16:22:46.000Z</time>
      </trkpt>
      <trkpt lat="45.13362" lon="5.50906">
        <ele>1214.1999511719</ele>
        <time>2014-05-20T16:23:01.000Z</time>
      </trkpt>
      <trkpt lat="45.1336" lon="5.50903">
        <ele>1214.1999511719</ele>
        <time>2014-05-20T16:23:10.000Z</time>
      </trkpt>
      <trkpt lat="45.13359" lon="5.50898">
        <ele>1214.1999511719</ele>
        <time>2014-05-20T16:23:17.000Z</time>
      </trkpt>
      <trkpt lat="45.13356" lon="5.50891">
        <ele>1214.1999511719</ele>
        <time>2014-05-20T16:23:24.000Z</time>
      </trkpt>
      <trkpt lat="45.13356" lon="5.50887">
        <ele>1214.1999511719</ele>
        <time>2014-05-20T16:23:32.000Z</time>
      </trkpt>
      <trkpt lat="45.13356" lon="5.50882">
        <ele>1214.1999511719</ele>
        <time>2014-05-20T16:23:38.000Z</time>
      </trkpt>
      <trkpt lat="45.13354" lon="5.50869">
        <ele>1214.1999511719</ele>
        <time>2014-05-20T16:23:44.000Z</time>
      </trkpt>
      <trkpt lat="45.13353" lon="5.50858">
        <ele>1213.8000488281</ele>
        <time>2014-05-20T16:23:48.000Z</time>
      </trkpt>
      <trkpt lat="45.13353" lon="5.50856">
        <ele>1213.4000244141</ele>
        <time>2014-05-20T16:23:49.000Z</time>
      </trkpt>
      <trkpt lat="45.13353" lon="5.50854">
        <ele>1213</ele>
        <time>2014-05-20T16:23:50.000Z</time>
      </trkpt>
      <trkpt lat="45.13352" lon="5.50852">
        <ele>1212.5999755859</ele>
        <time>2014-05-20T16:23:51.000Z</time>
      </trkpt>
      <trkpt lat="45.1335" lon="5.50852">
        <ele>1212.1999511719</ele>
        <time>2014-05-20T16:23:52.000Z</time>
      </trkpt>
      <trkpt lat="45.13348" lon="5.50852">
        <ele>1211.5999755859</ele>
        <time>2014-05-20T16:23:54.000Z</time>
      </trkpt>
      <trkpt lat="45.13346" lon="5.50854">
        <ele>1211.1999511719</ele>
        <time>2014-05-20T16:23:55.000Z</time>
      </trkpt>
      <trkpt lat="45.13345" lon="5.50857">
        <ele>1210.8000488281</ele>
        <time>2014-05-20T16:23:56.000Z</time>
      </trkpt>
      <trkpt lat="45.13344" lon="5.50859">
        <ele>1210.1999511719</ele>
        <time>2014-05-20T16:23:57.000Z</time>
      </trkpt>
      <trkpt lat="45.13343" lon="5.50861">
        <ele>1209.8000488281</ele>
        <time>2014-05-20T16:23:58.000Z</time>
      </trkpt>
      <trkpt lat="45.13339" lon="5.50863">
        <ele>1209.4000244141</ele>
        <time>2014-05-20T16:24:00.000Z</time>
      </trkpt>
      <trkpt lat="45.13337" lon="5.50864">
        <ele>1209</ele>
        <time>2014-05-20T16:24:01.000Z</time>
      </trkpt>
      <trkpt lat="45.13336" lon="5.50864">
        <ele>1208.4000244141</ele>
        <time>2014-05-20T16:24:02.000Z</time>
      </trkpt>
      <trkpt lat="45.13335" lon="5.50864">
        <ele>1208</ele>
        <time>2014-05-20T16:24:03.000Z</time>
      </trkpt>
      <trkpt lat="45.13334" lon="5.50864">
        <ele>1207.5999755859</ele>
        <time>2014-05-20T16:24:04.000Z</time>
      </trkpt>
      <trkpt lat="45.13334" lon="5.50864">
        <ele>1207.5999755859</ele>
        <time>2014-05-20T16:24:09.000Z</time>
      </trkpt>
      <trkpt lat="45.1333" lon="5.50863">
        <ele>1207.5999755859</ele>
        <time>2014-05-20T16:24:17.000Z</time>
      </trkpt>
      <trkpt lat="45.13325" lon="5.5086">
        <ele>1207.5999755859</ele>
        <time>2014-05-20T16:24:20.000Z</time>
      </trkpt>
      <trkpt lat="45.13322" lon="5.50858">
        <ele>1207.5999755859</ele>
        <time>2014-05-20T16:24:22.000Z</time>
      </trkpt>
      <trkpt lat="45.13318" lon="5.50857">
        <ele>1207.5999755859</ele>
        <time>2014-05-20T16:24:25.000Z</time>
      </trkpt>
      <trkpt lat="45.13308" lon="5.50857">
        <ele>1207.5999755859</ele>
        <time>2014-05-20T16:24:30.000Z</time>
      </trkpt>
      <trkpt lat="45.13303" lon="5.50863">
        <ele>1208</ele>
        <time>2014-05-20T16:24:34.000Z</time>
      </trkpt>
      <trkpt lat="45.13302" lon="5.50863">
        <ele>1208.5999755859</ele>
        <time>2014-05-20T16:24:35.000Z</time>
      </trkpt>
      <trkpt lat="45.133" lon="5.50865">
        <ele>1209</ele>
        <time>2014-05-20T16:24:36.000Z</time>
      </trkpt>
      <trkpt lat="45.13299" lon="5.50865">
        <ele>1209.4000244141</ele>
        <time>2014-05-20T16:24:37.000Z</time>
      </trkpt>
      <trkpt lat="45.13297" lon="5.50867">
        <ele>1209.8000488281</ele>
        <time>2014-05-20T16:24:38.000Z</time>
      </trkpt>
      <trkpt lat="45.13294" lon="5.50869">
        <ele>1209.8000488281</ele>
        <time>2014-05-20T16:24:41.000Z</time>
      </trkpt>
      <trkpt lat="45.13293" lon="5.50869">
        <ele>1209.8000488281</ele>
        <time>2014-05-20T16:24:51.000Z</time>
      </trkpt>
      <trkpt lat="45.13293" lon="5.50869">
        <ele>1209.8000488281</ele>
        <time>2014-05-20T16:25:06.000Z</time>
      </trkpt>
      <trkpt lat="45.13293" lon="5.50869">
        <ele>1209.8000488281</ele>
        <time>2014-05-20T16:25:19.000Z</time>
      </trkpt>
      <trkpt lat="45.13292" lon="5.50869">
        <ele>1209.8000488281</ele>
        <time>2014-05-20T16:25:35.000Z</time>
      </trkpt>
      <trkpt lat="45.13292" lon="5.50869">
        <ele>1209.8000488281</ele>
        <time>2014-05-20T16:25:52.000Z</time>
      </trkpt>
      <trkpt lat="45.13292" lon="5.50869">
        <ele>1209.8000488281</ele>
        <time>2014-05-20T16:26:07.000Z</time>
      </trkpt>
      <trkpt lat="45.13292" lon="5.50869">
        <ele>1209.8000488281</ele>
        <time>2014-05-20T16:26:23.000Z</time>
      </trkpt>
      <trkpt lat="45.13292" lon="5.50869">
        <ele>1209.8000488281</ele>
        <time>2014-05-20T16:26:39.000Z</time>
      </trkpt>
      <trkpt lat="45.13291" lon="5.5087">
        <ele>1209.8000488281</ele>
        <time>2014-05-20T16:26:54.000Z</time>
      </trkpt>
      <trkpt lat="45.13291" lon="5.5087">
        <ele>1209.8000488281</ele>
        <time>2014-05-20T16:27:07.000Z</time>
      </trkpt>
      <trkpt lat="45.13291" lon="5.5087">
        <ele>1209.8000488281</ele>
        <time>2014-05-20T16:27:21.000Z</time>
      </trkpt>
      <trkpt lat="45.13291" lon="5.5087">
        <ele>1209.8000488281</ele>
        <time>2014-05-20T16:27:22.000Z</time>
      </trkpt>
      <trkpt lat="45.13291" lon="5.5087">
        <ele>1209.8000488281</ele>
        <time>2014-05-20T16:27:34.000Z</time>
      </trkpt>
      <trkpt lat="45.13291" lon="5.5087">
        <ele>1209.8000488281</ele>
        <time>2014-05-20T16:27:48.000Z</time>
      </trkpt>
      <trkpt lat="45.13291" lon="5.5087">
        <ele>1209.8000488281</ele>
        <time>2014-05-20T16:28:04.000Z</time>
      </trkpt>
      <trkpt lat="45.13291" lon="5.5087">
        <ele>1209.8000488281</ele>
        <time>2014-05-20T16:28:21.000Z</time>
      </trkpt>
      <trkpt lat="45.13291" lon="5.5087">
        <ele>1209.8000488281</ele>
        <time>2014-05-20T16:28:37.000Z</time>
      </trkpt>
      <trkpt lat="45.1329" lon="5.5087">
        <ele>1209.8000488281</ele>
        <time>2014-05-20T16:28:52.000Z</time>
      </trkpt>
      <trkpt lat="45.1329" lon="5.5087">
        <ele>1209.8000488281</ele>
        <time>2014-05-20T16:29:06.000Z</time>
      </trkpt>
      <trkpt lat="45.1329" lon="5.5087">
        <ele>1209.8000488281</ele>
        <time>2014-05-20T16:29:21.000Z</time>
      </trkpt>
      <trkpt lat="45.13291" lon="5.5087">
        <ele>1209.8000488281</ele>
        <time>2014-05-20T16:29:35.000Z</time>
      </trkpt>
      <trkpt lat="45.13291" lon="5.5087">
        <ele>1209.8000488281</ele>
        <time>2014-05-20T16:29:51.000Z</time>
      </trkpt>
      <trkpt lat="45.13291" lon="5.5087">
        <ele>1209.8000488281</ele>
        <time>2014-05-20T16:30:05.000Z</time>
      </trkpt>
      <trkpt lat="45.13291" lon="5.5087">
        <ele>1209.8000488281</ele>
        <time>2014-05-20T16:30:20.000Z</time>
      </trkpt>
      <trkpt lat="45.13291" lon="5.5087">
        <ele>1209.8000488281</ele>
        <time>2014-05-20T16:30:38.000Z</time>
      </trkpt>
      <trkpt lat="45.13291" lon="5.5087">
        <ele>1209.8000488281</ele>
        <time>2014-05-20T16:30:55.000Z</time>
      </trkpt>
      <trkpt lat="45.13291" lon="5.5087">
        <ele>1209.8000488281</ele>
        <time>2014-05-20T16:31:15.000Z</time>
      </trkpt>
      <trkpt lat="45.13291" lon="5.5087">
        <ele>1209.8000488281</ele>
        <time>2014-05-20T16:31:35.000Z</time>
      </trkpt>
      <trkpt lat="45.13291" lon="5.5087">
        <ele>1209.8000488281</ele>
        <time>2014-05-20T16:31:55.000Z</time>
      </trkpt>
      <trkpt lat="45.1329" lon="5.5087">
        <ele>1209.8000488281</ele>
        <time>2014-05-20T16:32:09.000Z</time>
      </trkpt>
      <trkpt lat="45.1329" lon="5.5087">
        <ele>1209.8000488281</ele>
        <time>2014-05-20T16:32:26.000Z</time>
      </trkpt>
      <trkpt lat="45.1329" lon="5.5087">
        <ele>1209.8000488281</ele>
        <time>2014-05-20T16:32:42.000Z</time>
      </trkpt>
      <trkpt lat="45.1329" lon="5.5087">
        <ele>1209.8000488281</ele>
        <time>2014-05-20T16:32:59.000Z</time>
      </trkpt>
      <trkpt lat="45.1329" lon="5.5087">
        <ele>1209.8000488281</ele>
        <time>2014-05-20T16:33:14.000Z</time>
      </trkpt>
      <trkpt lat="45.1329" lon="5.5087">
        <ele>1209.8000488281</ele>
        <time>2014-05-20T16:33:27.000Z</time>
      </trkpt>
      <trkpt lat="45.1329" lon="5.5087">
        <ele>1209.8000488281</ele>
        <time>2014-05-20T16:33:42.000Z</time>
      </trkpt>
      <trkpt lat="45.1329" lon="5.5087">
        <ele>1209.8000488281</ele>
        <time>2014-05-20T16:33:55.000Z</time>
      </trkpt>
      <trkpt lat="45.1329" lon="5.5087">
        <ele>1209.8000488281</ele>
        <time>2014-05-20T16:34:09.000Z</time>
      </trkpt>
      <trkpt lat="45.1329" lon="5.5087">
        <ele>1209.8000488281</ele>
        <time>2014-05-20T16:34:21.000Z</time>
      </trkpt>
      <trkpt lat="45.1329" lon="5.5087">
        <ele>1209.8000488281</ele>
        <time>2014-05-20T16:34:39.000Z</time>
      </trkpt>
      <trkpt lat="45.1329" lon="5.5087">
        <ele>1209.8000488281</ele>
        <time>2014-05-20T16:34:50.000Z</time>
      </trkpt>
      <trkpt lat="45.1329" lon="5.5087">
        <ele>1209.8000488281</ele>
        <time>2014-05-20T16:35:05.000Z</time>
      </trkpt>
      <trkpt lat="45.1329" lon="5.50871">
        <ele>1209.8000488281</ele>
        <time>2014-05-20T16:35:23.000Z</time>
      </trkpt>
      <trkpt lat="45.1329" lon="5.50871">
        <ele>1209.8000488281</ele>
        <time>2014-05-20T16:35:38.000Z</time>
      </trkpt>
      <trkpt lat="45.1329" lon="5.50871">
        <ele>1209.8000488281</ele>
        <time>2014-05-20T16:35:53.000Z</time>
      </trkpt>
      <trkpt lat="45.13289" lon="5.5087">
        <ele>1209.8000488281</ele>
        <time>2014-05-20T16:36:09.000Z</time>
      </trkpt>
      <trkpt lat="45.13288" lon="5.50873">
        <ele>1209.8000488281</ele>
        <time>2014-05-20T16:36:12.000Z</time>
      </trkpt>
      <trkpt lat="45.13285" lon="5.5088">
        <ele>1209.8000488281</ele>
        <time>2014-05-20T16:36:14.000Z</time>
      </trkpt>
      <trkpt lat="45.1328" lon="5.50893">
        <ele>1209.8000488281</ele>
        <time>2014-05-20T16:36:17.000Z</time>
      </trkpt>
      <trkpt lat="45.13277" lon="5.50898">
        <ele>1209.8000488281</ele>
        <time>2014-05-20T16:36:18.000Z</time>
      </trkpt>
      <trkpt lat="45.13266" lon="5.50918">
        <ele>1209.4000244141</ele>
        <time>2014-05-20T16:36:23.000Z</time>
      </trkpt>
      <trkpt lat="45.13263" lon="5.50921">
        <ele>1208.8000488281</ele>
        <time>2014-05-20T16:36:24.000Z</time>
      </trkpt>
      <trkpt lat="45.1326" lon="5.50925">
        <ele>1208.4000244141</ele>
        <time>2014-05-20T16:36:25.000Z</time>
      </trkpt>
      <trkpt lat="45.13257" lon="5.50928">
        <ele>1207.8000488281</ele>
        <time>2014-05-20T16:36:26.000Z</time>
      </trkpt>
      <trkpt lat="45.13254" lon="5.50932">
        <ele>1207</ele>
        <time>2014-05-20T16:36:27.000Z</time>
      </trkpt>
      <trkpt lat="45.13251" lon="5.50935">
        <ele>1206.4000244141</ele>
        <time>2014-05-20T16:36:28.000Z</time>
      </trkpt>
      <trkpt lat="45.13248" lon="5.5094">
        <ele>1205.1999511719</ele>
        <time>2014-05-20T16:36:29.000Z</time>
      </trkpt>
      <trkpt lat="45.13246" lon="5.50945">
        <ele>1204.5999755859</ele>
        <time>2014-05-20T16:36:30.000Z</time>
      </trkpt>
      <trkpt lat="45.13244" lon="5.50952">
        <ele>1204</ele>
        <time>2014-05-20T16:36:31.000Z</time>
      </trkpt>
      <trkpt lat="45.13241" lon="5.50959">
        <ele>1203.4000244141</ele>
        <time>2014-05-20T16:36:32.000Z</time>
      </trkpt>
      <trkpt lat="45.13238" lon="5.50966">
        <ele>1202.5999755859</ele>
        <time>2014-05-20T16:36:33.000Z</time>
      </trkpt>
      <trkpt lat="45.13235" lon="5.50973">
        <ele>1201.8000488281</ele>
        <time>2014-05-20T16:36:34.000Z</time>
      </trkpt>
      <trkpt lat="45.13232" lon="5.5098">
        <ele>1201</ele>
        <time>2014-05-20T16:36:35.000Z</time>
      </trkpt>
      <trkpt lat="45.13231" lon="5.50984">
        <ele>1200.1999511719</ele>
        <time>2014-05-20T16:36:36.000Z</time>
      </trkpt>
      <trkpt lat="45.1323" lon="5.50986">
        <ele>1199.5999755859</ele>
        <time>2014-05-20T16:36:37.000Z</time>
      </trkpt>
      <trkpt lat="45.13231" lon="5.50988">
        <ele>1198.8000488281</ele>
        <time>2014-05-20T16:36:38.000Z</time>
      </trkpt>
      <trkpt lat="45.13233" lon="5.50989">
        <ele>1198.1999511719</ele>
        <time>2014-05-20T16:36:39.000Z</time>
      </trkpt>
      <trkpt lat="45.13238" lon="5.50989">
        <ele>1197.4000244141</ele>
        <time>2014-05-20T16:36:40.000Z</time>
      </trkpt>
      <trkpt lat="45.13242" lon="5.50987">
        <ele>1196.8000488281</ele>
        <time>2014-05-20T16:36:41.000Z</time>
      </trkpt>
      <trkpt lat="45.13253" lon="5.50977">
        <ele>1196.8000488281</ele>
        <time>2014-05-20T16:36:43.000Z</time>
      </trkpt>
      <trkpt lat="45.13264" lon="5.50963">
        <ele>1196.8000488281</ele>
        <time>2014-05-20T16:36:46.000Z</time>
      </trkpt>
      <trkpt lat="45.13274" lon="5.50952">
        <ele>1196.8000488281</ele>
        <time>2014-05-20T16:36:49.000Z</time>
      </trkpt>
      <trkpt lat="45.13278" lon="5.50948">
        <ele>1196.8000488281</ele>
        <time>2014-05-20T16:36:50.000Z</time>
      </trkpt>
      <trkpt lat="45.13288" lon="5.50937">
        <ele>1196.8000488281</ele>
        <time>2014-05-20T16:36:54.000Z</time>
      </trkpt>
      <trkpt lat="45.133" lon="5.50924">
        <ele>1196.8000488281</ele>
        <time>2014-05-20T16:36:59.000Z</time>
      </trkpt>
      <trkpt lat="45.13304" lon="5.50924">
        <ele>1196.8000488281</ele>
        <time>2014-05-20T16:37:01.000Z</time>
      </trkpt>
      <trkpt lat="45.13306" lon="5.50929">
        <ele>1196.8000488281</ele>
        <time>2014-05-20T16:37:02.000Z</time>
      </trkpt>
      <trkpt lat="45.13312" lon="5.50947">
        <ele>1196.8000488281</ele>
        <time>2014-05-20T16:37:05.000Z</time>
      </trkpt>
      <trkpt lat="45.13315" lon="5.50954">
        <ele>1196.8000488281</ele>
        <time>2014-05-20T16:37:06.000Z</time>
      </trkpt>
      <trkpt lat="45.13328" lon="5.50995">
        <ele>1196.1999511719</ele>
        <time>2014-05-20T16:37:11.000Z</time>
      </trkpt>
      <trkpt lat="45.1333" lon="5.51004">
        <ele>1195.8000488281</ele>
        <time>2014-05-20T16:37:12.000Z</time>
      </trkpt>
      <trkpt lat="45.13332" lon="5.51012">
        <ele>1195.1999511719</ele>
        <time>2014-05-20T16:37:13.000Z</time>
      </trkpt>
      <trkpt lat="45.13333" lon="5.51019">
        <ele>1194.8000488281</ele>
        <time>2014-05-20T16:37:14.000Z</time>
      </trkpt>
      <trkpt lat="45.13334" lon="5.51026">
        <ele>1194.4000244141</ele>
        <time>2014-05-20T16:37:15.000Z</time>
      </trkpt>
      <trkpt lat="45.13337" lon="5.51033">
        <ele>1194.4000244141</ele>
        <time>2014-05-20T16:37:16.000Z</time>
      </trkpt>
      <trkpt lat="45.13341" lon="5.5104">
        <ele>1193.8000488281</ele>
        <time>2014-05-20T16:37:17.000Z</time>
      </trkpt>
      <trkpt lat="45.13345" lon="5.51047">
        <ele>1193.4000244141</ele>
        <time>2014-05-20T16:37:18.000Z</time>
      </trkpt>
      <trkpt lat="45.1335" lon="5.51051">
        <ele>1192.4000244141</ele>
        <time>2014-05-20T16:37:19.000Z</time>
      </trkpt>
      <trkpt lat="45.13354" lon="5.51054">
        <ele>1192</ele>
        <time>2014-05-20T16:37:20.000Z</time>
      </trkpt>
      <trkpt lat="45.13357" lon="5.51056">
        <ele>1192</ele>
        <time>2014-05-20T16:37:21.000Z</time>
      </trkpt>
      <trkpt lat="45.13364" lon="5.51059">
        <ele>1191.5999755859</ele>
        <time>2014-05-20T16:37:23.000Z</time>
      </trkpt>
      <trkpt lat="45.13366" lon="5.5106">
        <ele>1191</ele>
        <time>2014-05-20T16:37:24.000Z</time>
      </trkpt>
      <trkpt lat="45.13367" lon="5.5106">
        <ele>1190.5999755859</ele>
        <time>2014-05-20T16:37:25.000Z</time>
      </trkpt>
      <trkpt lat="45.13369" lon="5.51062">
        <ele>1190.1999511719</ele>
        <time>2014-05-20T16:37:26.000Z</time>
      </trkpt>
      <trkpt lat="45.13372" lon="5.51063">
        <ele>1189.8000488281</ele>
        <time>2014-05-20T16:37:27.000Z</time>
      </trkpt>
      <trkpt lat="45.13379" lon="5.51065">
        <ele>1189.8000488281</ele>
        <time>2014-05-20T16:37:29.000Z</time>
      </trkpt>
      <trkpt lat="45.13398" lon="5.51069">
        <ele>1189.4000244141</ele>
        <time>2014-05-20T16:37:34.000Z</time>
      </trkpt>
      <trkpt lat="45.13402" lon="5.51069">
        <ele>1188.8000488281</ele>
        <time>2014-05-20T16:37:35.000Z</time>
      </trkpt>
      <trkpt lat="45.13406" lon="5.51069">
        <ele>1188.4000244141</ele>
        <time>2014-05-20T16:37:36.000Z</time>
      </trkpt>
      <trkpt lat="45.13411" lon="5.51069">
        <ele>1188</ele>
        <time>2014-05-20T16:37:37.000Z</time>
      </trkpt>
      <trkpt lat="45.13415" lon="5.51069">
        <ele>1187.4000244141</ele>
        <time>2014-05-20T16:37:38.000Z</time>
      </trkpt>
      <trkpt lat="45.13428" lon="5.51073">
        <ele>1187.4000244141</ele>
        <time>2014-05-20T16:37:41.000Z</time>
      </trkpt>
      <trkpt lat="45.13438" lon="5.51076">
        <ele>1187</ele>
        <time>2014-05-20T16:37:43.000Z</time>
      </trkpt>
      <trkpt lat="45.13445" lon="5.51075">
        <ele>1186.5999755859</ele>
        <time>2014-05-20T16:37:44.000Z</time>
      </trkpt>
      <trkpt lat="45.13451" lon="5.51076">
        <ele>1186.1999511719</ele>
        <time>2014-05-20T16:37:45.000Z</time>
      </trkpt>
      <trkpt lat="45.13458" lon="5.51077">
        <ele>1185.5999755859</ele>
        <time>2014-05-20T16:37:46.000Z</time>
      </trkpt>
      <trkpt lat="45.13465" lon="5.51077">
        <ele>1185</ele>
        <time>2014-05-20T16:37:47.000Z</time>
      </trkpt>
      <trkpt lat="45.13474" lon="5.51076">
        <ele>1184.4000244141</ele>
        <time>2014-05-20T16:37:48.000Z</time>
      </trkpt>
      <trkpt lat="45.13482" lon="5.51075">
        <ele>1183.8000488281</ele>
        <time>2014-05-20T16:37:49.000Z</time>
      </trkpt>
      <trkpt lat="45.1349" lon="5.51075">
        <ele>1183.1999511719</ele>
        <time>2014-05-20T16:37:50.000Z</time>
      </trkpt>
      <trkpt lat="45.13498" lon="5.51075">
        <ele>1182.5999755859</ele>
        <time>2014-05-20T16:37:51.000Z</time>
      </trkpt>
      <trkpt lat="45.13507" lon="5.51077">
        <ele>1182.1999511719</ele>
        <time>2014-05-20T16:37:52.000Z</time>
      </trkpt>
      <trkpt lat="45.13514" lon="5.51079">
        <ele>1181.4000244141</ele>
        <time>2014-05-20T16:37:53.000Z</time>
      </trkpt>
      <trkpt lat="45.13522" lon="5.51081">
        <ele>1180.5999755859</ele>
        <time>2014-05-20T16:37:54.000Z</time>
      </trkpt>
      <trkpt lat="45.1353" lon="5.51083">
        <ele>1179.8000488281</ele>
        <time>2014-05-20T16:37:55.000Z</time>
      </trkpt>
      <trkpt lat="45.13537" lon="5.51085">
        <ele>1179</ele>
        <time>2014-05-20T16:37:56.000Z</time>
      </trkpt>
      <trkpt lat="45.13544" lon="5.51089">
        <ele>1178.4000244141</ele>
        <time>2014-05-20T16:37:57.000Z</time>
      </trkpt>
      <trkpt lat="45.13558" lon="5.51097">
        <ele>1177.8000488281</ele>
        <time>2014-05-20T16:37:59.000Z</time>
      </trkpt>
      <trkpt lat="45.13564" lon="5.51102">
        <ele>1177.4000244141</ele>
        <time>2014-05-20T16:38:00.000Z</time>
      </trkpt>
      <trkpt lat="45.1357" lon="5.51107">
        <ele>1177</ele>
        <time>2014-05-20T16:38:01.000Z</time>
      </trkpt>
      <trkpt lat="45.13576" lon="5.51112">
        <ele>1176.5999755859</ele>
        <time>2014-05-20T16:38:02.000Z</time>
      </trkpt>
      <trkpt lat="45.13583" lon="5.51116">
        <ele>1176.1999511719</ele>
        <time>2014-05-20T16:38:03.000Z</time>
      </trkpt>
      <trkpt lat="45.13595" lon="5.51125">
        <ele>1175.5999755859</ele>
        <time>2014-05-20T16:38:05.000Z</time>
      </trkpt>
      <trkpt lat="45.13602" lon="5.51129">
        <ele>1175.1999511719</ele>
        <time>2014-05-20T16:38:06.000Z</time>
      </trkpt>
      <trkpt lat="45.13608" lon="5.51132">
        <ele>1174.8000488281</ele>
        <time>2014-05-20T16:38:07.000Z</time>
      </trkpt>
      <trkpt lat="45.13614" lon="5.51134">
        <ele>1174</ele>
        <time>2014-05-20T16:38:08.000Z</time>
      </trkpt>
      <trkpt lat="45.13619" lon="5.51135">
        <ele>1174</ele>
        <time>2014-05-20T16:38:09.000Z</time>
      </trkpt>
      <trkpt lat="45.13631" lon="5.51137">
        <ele>1173.4000244141</ele>
        <time>2014-05-20T16:38:11.000Z</time>
      </trkpt>
      <trkpt lat="45.13637" lon="5.51138">
        <ele>1173</ele>
        <time>2014-05-20T16:38:12.000Z</time>
      </trkpt>
      <trkpt lat="45.13643" lon="5.51139">
        <ele>1172.4000244141</ele>
        <time>2014-05-20T16:38:13.000Z</time>
      </trkpt>
      <trkpt lat="45.13649" lon="5.5114">
        <ele>1172</ele>
        <time>2014-05-20T16:38:14.000Z</time>
      </trkpt>
      <trkpt lat="45.13659" lon="5.51141">
        <ele>1171.5999755859</ele>
        <time>2014-05-20T16:38:15.000Z</time>
      </trkpt>
      <trkpt lat="45.13674" lon="5.51143">
        <ele>1171</ele>
        <time>2014-05-20T16:38:17.000Z</time>
      </trkpt>
      <trkpt lat="45.1368" lon="5.51141">
        <ele>1170.4000244141</ele>
        <time>2014-05-20T16:38:18.000Z</time>
      </trkpt>
      <trkpt lat="45.13686" lon="5.51138">
        <ele>1169.8000488281</ele>
        <time>2014-05-20T16:38:19.000Z</time>
      </trkpt>
      <trkpt lat="45.13691" lon="5.51135">
        <ele>1169.4000244141</ele>
        <time>2014-05-20T16:38:20.000Z</time>
      </trkpt>
      <trkpt lat="45.13696" lon="5.51132">
        <ele>1168.8000488281</ele>
        <time>2014-05-20T16:38:21.000Z</time>
      </trkpt>
      <trkpt lat="45.137" lon="5.5113">
        <ele>1168.1999511719</ele>
        <time>2014-05-20T16:38:22.000Z</time>
      </trkpt>
      <trkpt lat="45.13706" lon="5.51126">
        <ele>1167.5999755859</ele>
        <time>2014-05-20T16:38:23.000Z</time>
      </trkpt>
      <trkpt lat="45.13712" lon="5.51123">
        <ele>1167</ele>
        <time>2014-05-20T16:38:24.000Z</time>
      </trkpt>
      <trkpt lat="45.13718" lon="5.5112">
        <ele>1166.4000244141</ele>
        <time>2014-05-20T16:38:25.000Z</time>
      </trkpt>
      <trkpt lat="45.13725" lon="5.5112">
        <ele>1166</ele>
        <time>2014-05-20T16:38:26.000Z</time>
      </trkpt>
      <trkpt lat="45.13731" lon="5.51119">
        <ele>1165.4000244141</ele>
        <time>2014-05-20T16:38:27.000Z</time>
      </trkpt>
      <trkpt lat="45.13738" lon="5.51118">
        <ele>1165</ele>
        <time>2014-05-20T16:38:28.000Z</time>
      </trkpt>
      <trkpt lat="45.13745" lon="5.51116">
        <ele>1164.4000244141</ele>
        <time>2014-05-20T16:38:29.000Z</time>
      </trkpt>
      <trkpt lat="45.13752" lon="5.51113">
        <ele>1163.8000488281</ele>
        <time>2014-05-20T16:38:30.000Z</time>
      </trkpt>
      <trkpt lat="45.13758" lon="5.51108">
        <ele>1163</ele>
        <time>2014-05-20T16:38:31.000Z</time>
      </trkpt>
      <trkpt lat="45.13765" lon="5.51102">
        <ele>1161.4000244141</ele>
        <time>2014-05-20T16:38:32.000Z</time>
      </trkpt>
      <trkpt lat="45.13772" lon="5.51094">
        <ele>1160.5999755859</ele>
        <time>2014-05-20T16:38:33.000Z</time>
      </trkpt>
      <trkpt lat="45.13779" lon="5.51084">
        <ele>1160</ele>
        <time>2014-05-20T16:38:34.000Z</time>
      </trkpt>
      <trkpt lat="45.13786" lon="5.51074">
        <ele>1159.4000244141</ele>
        <time>2014-05-20T16:38:35.000Z</time>
      </trkpt>
      <trkpt lat="45.13792" lon="5.51063">
        <ele>1158.8000488281</ele>
        <time>2014-05-20T16:38:36.000Z</time>
      </trkpt>
      <trkpt lat="45.13796" lon="5.51054">
        <ele>1158</ele>
        <time>2014-05-20T16:38:37.000Z</time>
      </trkpt>
      <trkpt lat="45.138" lon="5.51046">
        <ele>1157.1999511719</ele>
        <time>2014-05-20T16:38:38.000Z</time>
      </trkpt>
      <trkpt lat="45.13804" lon="5.51039">
        <ele>1156.4000244141</ele>
        <time>2014-05-20T16:38:39.000Z</time>
      </trkpt>
      <trkpt lat="45.13807" lon="5.51032">
        <ele>1155.5999755859</ele>
        <time>2014-05-20T16:38:40.000Z</time>
      </trkpt>
      <trkpt lat="45.1381" lon="5.51025">
        <ele>1154.8000488281</ele>
        <time>2014-05-20T16:38:41.000Z</time>
      </trkpt>
      <trkpt lat="45.13811" lon="5.51018">
        <ele>1154</ele>
        <time>2014-05-20T16:38:42.000Z</time>
      </trkpt>
      <trkpt lat="45.13811" lon="5.51009">
        <ele>1153.4000244141</ele>
        <time>2014-05-20T16:38:43.000Z</time>
      </trkpt>
      <trkpt lat="45.13811" lon="5.51003">
        <ele>1152.5999755859</ele>
        <time>2014-05-20T16:38:44.000Z</time>
      </trkpt>
      <trkpt lat="45.13811" lon="5.50997">
        <ele>1152</ele>
        <time>2014-05-20T16:38:45.000Z</time>
      </trkpt>
      <trkpt lat="45.13812" lon="5.5099">
        <ele>1151.4000244141</ele>
        <time>2014-05-20T16:38:46.000Z</time>
      </trkpt>
      <trkpt lat="45.13811" lon="5.50983">
        <ele>1150.8000488281</ele>
        <time>2014-05-20T16:38:47.000Z</time>
      </trkpt>
      <trkpt lat="45.13812" lon="5.50977">
        <ele>1150</ele>
        <time>2014-05-20T16:38:48.000Z</time>
      </trkpt>
      <trkpt lat="45.13812" lon="5.50972">
        <ele>1149.1999511719</ele>
        <time>2014-05-20T16:38:49.000Z</time>
      </trkpt>
      <trkpt lat="45.13814" lon="5.50968">
        <ele>1148.4000244141</ele>
        <time>2014-05-20T16:38:50.000Z</time>
      </trkpt>
      <trkpt lat="45.13816" lon="5.50967">
        <ele>1147.5999755859</ele>
        <time>2014-05-20T16:38:51.000Z</time>
      </trkpt>
      <trkpt lat="45.13821" lon="5.5097">
        <ele>1146.5999755859</ele>
        <time>2014-05-20T16:38:52.000Z</time>
      </trkpt>
      <trkpt lat="45.13826" lon="5.50974">
        <ele>1145.8000488281</ele>
        <time>2014-05-20T16:38:53.000Z</time>
      </trkpt>
      <trkpt lat="45.13833" lon="5.50978">
        <ele>1145</ele>
        <time>2014-05-20T16:38:54.000Z</time>
      </trkpt>
      <trkpt lat="45.13839" lon="5.5098">
        <ele>1144.1999511719</ele>
        <time>2014-05-20T16:38:55.000Z</time>
      </trkpt>
      <trkpt lat="45.13846" lon="5.50983">
        <ele>1143.4000244141</ele>
        <time>2014-05-20T16:38:56.000Z</time>
      </trkpt>
      <trkpt lat="45.13853" lon="5.50985">
        <ele>1142</ele>
        <time>2014-05-20T16:38:57.000Z</time>
      </trkpt>
      <trkpt lat="45.13859" lon="5.50987">
        <ele>1141.1999511719</ele>
        <time>2014-05-20T16:38:58.000Z</time>
      </trkpt>
      <trkpt lat="45.13866" lon="5.50989">
        <ele>1140.1999511719</ele>
        <time>2014-05-20T16:38:59.000Z</time>
      </trkpt>
      <trkpt lat="45.13872" lon="5.50992">
        <ele>1139.4000244141</ele>
        <time>2014-05-20T16:39:00.000Z</time>
      </trkpt>
      <trkpt lat="45.13878" lon="5.50994">
        <ele>1138.4000244141</ele>
        <time>2014-05-20T16:39:01.000Z</time>
      </trkpt>
      <trkpt lat="45.13885" lon="5.50997">
        <ele>1137.5999755859</ele>
        <time>2014-05-20T16:39:02.000Z</time>
      </trkpt>
      <trkpt lat="45.1389" lon="5.51">
        <ele>1136.5999755859</ele>
        <time>2014-05-20T16:39:03.000Z</time>
      </trkpt>
      <trkpt lat="45.13896" lon="5.51003">
        <ele>1135.8000488281</ele>
        <time>2014-05-20T16:39:04.000Z</time>
      </trkpt>
      <trkpt lat="45.13901" lon="5.51006">
        <ele>1135</ele>
        <time>2014-05-20T16:39:05.000Z</time>
      </trkpt>
      <trkpt lat="45.13906" lon="5.5101">
        <ele>1134.1999511719</ele>
        <time>2014-05-20T16:39:06.000Z</time>
      </trkpt>
      <trkpt lat="45.13909" lon="5.51011">
        <ele>1133.5999755859</ele>
        <time>2014-05-20T16:39:07.000Z</time>
      </trkpt>
      <trkpt lat="45.13913" lon="5.51012">
        <ele>1132.8000488281</ele>
        <time>2014-05-20T16:39:08.000Z</time>
      </trkpt>
      <trkpt lat="45.13917" lon="5.51014">
        <ele>1132</ele>
        <time>2014-05-20T16:39:09.000Z</time>
      </trkpt>
      <trkpt lat="45.13921" lon="5.51015">
        <ele>1131.4000244141</ele>
        <time>2014-05-20T16:39:10.000Z</time>
      </trkpt>
      <trkpt lat="45.13926" lon="5.51016">
        <ele>1130.8000488281</ele>
        <time>2014-05-20T16:39:11.000Z</time>
      </trkpt>
      <trkpt lat="45.13931" lon="5.51017">
        <ele>1130.4000244141</ele>
        <time>2014-05-20T16:39:12.000Z</time>
      </trkpt>
      <trkpt lat="45.13935" lon="5.51021">
        <ele>1129.8000488281</ele>
        <time>2014-05-20T16:39:13.000Z</time>
      </trkpt>
      <trkpt lat="45.13941" lon="5.51026">
        <ele>1129.1999511719</ele>
        <time>2014-05-20T16:39:14.000Z</time>
      </trkpt>
      <trkpt lat="45.13944" lon="5.51032">
        <ele>1128.8000488281</ele>
        <time>2014-05-20T16:39:15.000Z</time>
      </trkpt>
      <trkpt lat="45.13948" lon="5.51037">
        <ele>1128.4000244141</ele>
        <time>2014-05-20T16:39:16.000Z</time>
      </trkpt>
      <trkpt lat="45.13951" lon="5.51043">
        <ele>1128</ele>
        <time>2014-05-20T16:39:17.000Z</time>
      </trkpt>
      <trkpt lat="45.13954" lon="5.51047">
        <ele>1127.4000244141</ele>
        <time>2014-05-20T16:39:18.000Z</time>
      </trkpt>
      <trkpt lat="45.13957" lon="5.5105">
        <ele>1127</ele>
        <time>2014-05-20T16:39:19.000Z</time>
      </trkpt>
      <trkpt lat="45.1396" lon="5.51052">
        <ele>1126.4000244141</ele>
        <time>2014-05-20T16:39:20.000Z</time>
      </trkpt>
      <trkpt lat="45.13963" lon="5.51054">
        <ele>1125.8000488281</ele>
        <time>2014-05-20T16:39:21.000Z</time>
      </trkpt>
      <trkpt lat="45.13965" lon="5.51057">
        <ele>1124.5999755859</ele>
        <time>2014-05-20T16:39:22.000Z</time>
      </trkpt>
      <trkpt lat="45.13968" lon="5.51058">
        <ele>1124</ele>
        <time>2014-05-20T16:39:23.000Z</time>
      </trkpt>
      <trkpt lat="45.1397" lon="5.51061">
        <ele>1123.4000244141</ele>
        <time>2014-05-20T16:39:24.000Z</time>
      </trkpt>
      <trkpt lat="45.13973" lon="5.51061">
        <ele>1123</ele>
        <time>2014-05-20T16:39:25.000Z</time>
      </trkpt>
      <trkpt lat="45.13974" lon="5.51061">
        <ele>1122.4000244141</ele>
        <time>2014-05-20T16:39:26.000Z</time>
      </trkpt>
      <trkpt lat="45.13976" lon="5.51061">
        <ele>1121.8000488281</ele>
        <time>2014-05-20T16:39:27.000Z</time>
      </trkpt>
      <trkpt lat="45.13978" lon="5.51062">
        <ele>1121.1999511719</ele>
        <time>2014-05-20T16:39:28.000Z</time>
      </trkpt>
      <trkpt lat="45.1398" lon="5.51062">
        <ele>1120.8000488281</ele>
        <time>2014-05-20T16:39:29.000Z</time>
      </trkpt>
      <trkpt lat="45.13982" lon="5.51063">
        <ele>1120.8000488281</ele>
        <time>2014-05-20T16:39:30.000Z</time>
      </trkpt>
      <trkpt lat="45.13982" lon="5.51065">
        <ele>1120.1999511719</ele>
        <time>2014-05-20T16:39:31.000Z</time>
      </trkpt>
      <trkpt lat="45.13983" lon="5.51066">
        <ele>1119.8000488281</ele>
        <time>2014-05-20T16:39:32.000Z</time>
      </trkpt>
      <trkpt lat="45.13984" lon="5.51068">
        <ele>1119.4000244141</ele>
        <time>2014-05-20T16:39:33.000Z</time>
      </trkpt>
      <trkpt lat="45.13984" lon="5.5107">
        <ele>1119</ele>
        <time>2014-05-20T16:39:34.000Z</time>
      </trkpt>
      <trkpt lat="45.13985" lon="5.51071">
        <ele>1118.5999755859</ele>
        <time>2014-05-20T16:39:35.000Z</time>
      </trkpt>
      <trkpt lat="45.13982" lon="5.51072">
        <ele>1118.1999511719</ele>
        <time>2014-05-20T16:39:38.000Z</time>
      </trkpt>
      <trkpt lat="45.13982" lon="5.51072">
        <ele>1117.8000488281</ele>
        <time>2014-05-20T16:39:39.000Z</time>
      </trkpt>
      <trkpt lat="45.13981" lon="5.51073">
        <ele>1117.4000244141</ele>
        <time>2014-05-20T16:39:40.000Z</time>
      </trkpt>
      <trkpt lat="45.13981" lon="5.51073">
        <ele>1117</ele>
        <time>2014-05-20T16:39:41.000Z</time>
      </trkpt>
      <trkpt lat="45.13981" lon="5.51073">
        <ele>1116.5999755859</ele>
        <time>2014-05-20T16:39:42.000Z</time>
      </trkpt>
      <trkpt lat="45.13979" lon="5.51072">
        <ele>1116.5999755859</ele>
        <time>2014-05-20T16:39:46.000Z</time>
      </trkpt>
      <trkpt lat="45.13972" lon="5.5107">
        <ele>1116.5999755859</ele>
        <time>2014-05-20T16:39:52.000Z</time>
      </trkpt>
      <trkpt lat="45.13967" lon="5.51066">
        <ele>1116.5999755859</ele>
        <time>2014-05-20T16:39:58.000Z</time>
      </trkpt>
      <trkpt lat="45.13965" lon="5.51066">
        <ele>1116.5999755859</ele>
        <time>2014-05-20T16:40:05.000Z</time>
      </trkpt>
      <trkpt lat="45.13959" lon="5.51063">
        <ele>1116.5999755859</ele>
        <time>2014-05-20T16:40:12.000Z</time>
      </trkpt>
      <trkpt lat="45.13955" lon="5.51062">
        <ele>1116.5999755859</ele>
        <time>2014-05-20T16:40:19.000Z</time>
      </trkpt>
      <trkpt lat="45.13947" lon="5.51061">
        <ele>1116.5999755859</ele>
        <time>2014-05-20T16:40:28.000Z</time>
      </trkpt>
      <trkpt lat="45.13947" lon="5.51059">
        <ele>1116.5999755859</ele>
        <time>2014-05-20T16:40:34.000Z</time>
      </trkpt>
      <trkpt lat="45.13946" lon="5.51057">
        <ele>1116.5999755859</ele>
        <time>2014-05-20T16:40:39.000Z</time>
      </trkpt>
      <trkpt lat="45.13942" lon="5.51056">
        <ele>1116.5999755859</ele>
        <time>2014-05-20T16:40:45.000Z</time>
      </trkpt>
      <trkpt lat="45.13936" lon="5.51057">
        <ele>1116.5999755859</ele>
        <time>2014-05-20T16:40:53.000Z</time>
      </trkpt>
      <trkpt lat="45.13935" lon="5.51056">
        <ele>1116.5999755859</ele>
        <time>2014-05-20T16:41:00.000Z</time>
      </trkpt>
      <trkpt lat="45.13934" lon="5.51057">
        <ele>1116.5999755859</ele>
        <time>2014-05-20T16:41:07.000Z</time>
      </trkpt>
      <trkpt lat="45.13929" lon="5.51058">
        <ele>1116.5999755859</ele>
        <time>2014-05-20T16:41:12.000Z</time>
      </trkpt>
      <trkpt lat="45.13928" lon="5.51058">
        <ele>1116.5999755859</ele>
        <time>2014-05-20T16:41:19.000Z</time>
      </trkpt>
      <trkpt lat="45.13928" lon="5.51058">
        <ele>1116.5999755859</ele>
        <time>2014-05-20T16:41:26.000Z</time>
      </trkpt>
      <trkpt lat="45.13928" lon="5.5106">
        <ele>1116.5999755859</ele>
        <time>2014-05-20T16:41:37.000Z</time>
      </trkpt>
      <trkpt lat="45.13925" lon="5.51063">
        <ele>1116.5999755859</ele>
        <time>2014-05-20T16:41:43.000Z</time>
      </trkpt>
      <trkpt lat="45.13924" lon="5.51064">
        <ele>1116.5999755859</ele>
        <time>2014-05-20T16:41:49.000Z</time>
      </trkpt>
      <trkpt lat="45.13923" lon="5.51066">
        <ele>1116.5999755859</ele>
        <time>2014-05-20T16:41:55.000Z</time>
      </trkpt>
      <trkpt lat="45.13925" lon="5.51068">
        <ele>1116.5999755859</ele>
        <time>2014-05-20T16:42:03.000Z</time>
      </trkpt>
      <trkpt lat="45.13925" lon="5.51068">
        <ele>1117</ele>
        <time>2014-05-20T16:42:04.000Z</time>
      </trkpt>
      <trkpt lat="45.13925" lon="5.51068">
        <ele>1117.4000244141</ele>
        <time>2014-05-20T16:42:05.000Z</time>
      </trkpt>
      <trkpt lat="45.13925" lon="5.51068">
        <ele>1117.8000488281</ele>
        <time>2014-05-20T16:42:06.000Z</time>
      </trkpt>
      <trkpt lat="45.13925" lon="5.51068">
        <ele>1118.4000244141</ele>
        <time>2014-05-20T16:42:07.000Z</time>
      </trkpt>
      <trkpt lat="45.13925" lon="5.51068">
        <ele>1118.8000488281</ele>
        <time>2014-05-20T16:42:08.000Z</time>
      </trkpt>
      <trkpt lat="45.13925" lon="5.51068">
        <ele>1118.8000488281</ele>
        <time>2014-05-20T16:42:14.000Z</time>
      </trkpt>
      <trkpt lat="45.13925" lon="5.51067">
        <ele>1118.8000488281</ele>
        <time>2014-05-20T16:42:24.000Z</time>
      </trkpt>
      <trkpt lat="45.13925" lon="5.51067">
        <ele>1118.8000488281</ele>
        <time>2014-05-20T16:42:32.000Z</time>
      </trkpt>
      <trkpt lat="45.13924" lon="5.51071">
        <ele>1118.8000488281</ele>
        <time>2014-05-20T16:42:40.000Z</time>
      </trkpt>
      <trkpt lat="45.13924" lon="5.51073">
        <ele>1118.8000488281</ele>
        <time>2014-05-20T16:42:45.000Z</time>
      </trkpt>
      <trkpt lat="45.13924" lon="5.51073">
        <ele>1118.8000488281</ele>
        <time>2014-05-20T16:43:02.000Z</time>
      </trkpt>
      <trkpt lat="45.13924" lon="5.51073">
        <ele>1118.8000488281</ele>
        <time>2014-05-20T16:43:21.000Z</time>
      </trkpt>
      <trkpt lat="45.13924" lon="5.51074">
        <ele>1118.8000488281</ele>
        <time>2014-05-20T16:43:35.000Z</time>
      </trkpt>
      <trkpt lat="45.13924" lon="5.51074">
        <ele>1118.8000488281</ele>
        <time>2014-05-20T16:43:51.000Z</time>
      </trkpt>
      <trkpt lat="45.13925" lon="5.51074">
        <ele>1118.8000488281</ele>
        <time>2014-05-20T16:43:58.000Z</time>
      </trkpt>
      <trkpt lat="45.13925" lon="5.51079">
        <ele>1118.8000488281</ele>
        <time>2014-05-20T16:44:07.000Z</time>
      </trkpt>
      <trkpt lat="45.13928" lon="5.51083">
        <ele>1118.8000488281</ele>
        <time>2014-05-20T16:44:14.000Z</time>
      </trkpt>
      <trkpt lat="45.1393" lon="5.51086">
        <ele>1119.1999511719</ele>
        <time>2014-05-20T16:44:18.000Z</time>
      </trkpt>
      <trkpt lat="45.1393" lon="5.51086">
        <ele>1120</ele>
        <time>2014-05-20T16:44:19.000Z</time>
      </trkpt>
      <trkpt lat="45.1393" lon="5.51086">
        <ele>1120.4000244141</ele>
        <time>2014-05-20T16:44:20.000Z</time>
      </trkpt>
      <trkpt lat="45.1393" lon="5.51086">
        <ele>1120.8000488281</ele>
        <time>2014-05-20T16:44:21.000Z</time>
      </trkpt>
      <trkpt lat="45.13929" lon="5.5109">
        <ele>1120.8000488281</ele>
        <time>2014-05-20T16:44:31.000Z</time>
      </trkpt>
      <trkpt lat="45.13931" lon="5.51101">
        <ele>1120.8000488281</ele>
        <time>2014-05-20T16:44:37.000Z</time>
      </trkpt>
      <trkpt lat="45.13929" lon="5.51105">
        <ele>1121.1999511719</ele>
        <time>2014-05-20T16:44:41.000Z</time>
      </trkpt>
      <trkpt lat="45.13928" lon="5.51106">
        <ele>1121.5999755859</ele>
        <time>2014-05-20T16:44:42.000Z</time>
      </trkpt>
      <trkpt lat="45.13929" lon="5.51107">
        <ele>1122.4000244141</ele>
        <time>2014-05-20T16:44:43.000Z</time>
      </trkpt>
      <trkpt lat="45.1393" lon="5.51108">
        <ele>1122.8000488281</ele>
        <time>2014-05-20T16:44:44.000Z</time>
      </trkpt>
      <trkpt lat="45.13932" lon="5.51121">
        <ele>1122.8000488281</ele>
        <time>2014-05-20T16:44:51.000Z</time>
      </trkpt>
      <trkpt lat="45.13932" lon="5.51121">
        <ele>1123.4000244141</ele>
        <time>2014-05-20T16:44:52.000Z</time>
      </trkpt>
      <trkpt lat="45.13932" lon="5.51124">
        <ele>1123.8000488281</ele>
        <time>2014-05-20T16:44:53.000Z</time>
      </trkpt>
      <trkpt lat="45.13932" lon="5.51126">
        <ele>1124.1999511719</ele>
        <time>2014-05-20T16:44:54.000Z</time>
      </trkpt>
      <trkpt lat="45.13932" lon="5.51127">
        <ele>1124.5999755859</ele>
        <time>2014-05-20T16:44:55.000Z</time>
      </trkpt>
      <trkpt lat="45.13933" lon="5.51129">
        <ele>1125</ele>
        <time>2014-05-20T16:44:56.000Z</time>
      </trkpt>
      <trkpt lat="45.13934" lon="5.5113">
        <ele>1125</ele>
        <time>2014-05-20T16:44:57.000Z</time>
      </trkpt>
      <trkpt lat="45.13935" lon="5.51139">
        <ele>1125</ele>
        <time>2014-05-20T16:45:04.000Z</time>
      </trkpt>
      <trkpt lat="45.13935" lon="5.51146">
        <ele>1125</ele>
        <time>2014-05-20T16:45:10.000Z</time>
      </trkpt>
      <trkpt lat="45.13934" lon="5.51151">
        <ele>1125</ele>
        <time>2014-05-20T16:45:17.000Z</time>
      </trkpt>
      <trkpt lat="45.13933" lon="5.51151">
        <ele>1125</ele>
        <time>2014-05-20T16:45:23.000Z</time>
      </trkpt>
      <trkpt lat="45.13934" lon="5.51153">
        <ele>1125.4000244141</ele>
        <time>2014-05-20T16:45:27.000Z</time>
      </trkpt>
      <trkpt lat="45.13935" lon="5.51154">
        <ele>1125.8000488281</ele>
        <time>2014-05-20T16:45:28.000Z</time>
      </trkpt>
      <trkpt lat="45.13935" lon="5.51156">
        <ele>1126.1999511719</ele>
        <time>2014-05-20T16:45:29.000Z</time>
      </trkpt>
      <trkpt lat="45.13936" lon="5.51157">
        <ele>1126.8000488281</ele>
        <time>2014-05-20T16:45:30.000Z</time>
      </trkpt>
      <trkpt lat="45.13936" lon="5.51159">
        <ele>1127.1999511719</ele>
        <time>2014-05-20T16:45:31.000Z</time>
      </trkpt>
      <trkpt lat="45.13934" lon="5.51163">
        <ele>1127.5999755859</ele>
        <time>2014-05-20T16:45:34.000Z</time>
      </trkpt>
      <trkpt lat="45.13933" lon="5.51164">
        <ele>1128</ele>
        <time>2014-05-20T16:45:35.000Z</time>
      </trkpt>
      <trkpt lat="45.13934" lon="5.51165">
        <ele>1128.4000244141</ele>
        <time>2014-05-20T16:45:36.000Z</time>
      </trkpt>
      <trkpt lat="45.13934" lon="5.51166">
        <ele>1128.8000488281</ele>
        <time>2014-05-20T16:45:37.000Z</time>
      </trkpt>
      <trkpt lat="45.13934" lon="5.51167">
        <ele>1129.4000244141</ele>
        <time>2014-05-20T16:45:38.000Z</time>
      </trkpt>
      <trkpt lat="45.13934" lon="5.51169">
        <ele>1129.4000244141</ele>
        <time>2014-05-20T16:45:42.000Z</time>
      </trkpt>
      <trkpt lat="45.13934" lon="5.51173">
        <ele>1129.4000244141</ele>
        <time>2014-05-20T16:45:49.000Z</time>
      </trkpt>
      <trkpt lat="45.13929" lon="5.51178">
        <ele>1129.4000244141</ele>
        <time>2014-05-20T16:45:56.000Z</time>
      </trkpt>
      <trkpt lat="45.13928" lon="5.51182">
        <ele>1129.4000244141</ele>
        <time>2014-05-20T16:46:02.000Z</time>
      </trkpt>
      <trkpt lat="45.13929" lon="5.5119">
        <ele>1129.4000244141</ele>
        <time>2014-05-20T16:46:08.000Z</time>
      </trkpt>
      <trkpt lat="45.13931" lon="5.51197">
        <ele>1129.4000244141</ele>
        <time>2014-05-20T16:46:11.000Z</time>
      </trkpt>
      <trkpt lat="45.13931" lon="5.51198">
        <ele>1129.4000244141</ele>
        <time>2014-05-20T16:46:13.000Z</time>
      </trkpt>
      <trkpt lat="45.13926" lon="5.51206">
        <ele>1129.4000244141</ele>
        <time>2014-05-20T16:46:20.000Z</time>
      </trkpt>
      <trkpt lat="45.13918" lon="5.51209">
        <ele>1129.4000244141</ele>
        <time>2014-05-20T16:46:23.000Z</time>
      </trkpt>
      <trkpt lat="45.13916" lon="5.5121">
        <ele>1129.4000244141</ele>
        <time>2014-05-20T16:46:26.000Z</time>
      </trkpt>
      <trkpt lat="45.13907" lon="5.51213">
        <ele>1129.4000244141</ele>
        <time>2014-05-20T16:46:32.000Z</time>
      </trkpt>
      <trkpt lat="45.13898" lon="5.51213">
        <ele>1129.4000244141</ele>
        <time>2014-05-20T16:46:37.000Z</time>
      </trkpt>
      <trkpt lat="45.13893" lon="5.51213">
        <ele>1129.4000244141</ele>
        <time>2014-05-20T16:46:42.000Z</time>
      </trkpt>
      <trkpt lat="45.13889" lon="5.51218">
        <ele>1129.4000244141</ele>
        <time>2014-05-20T16:46:48.000Z</time>
      </trkpt>
      <trkpt lat="45.13883" lon="5.51224">
        <ele>1129.4000244141</ele>
        <time>2014-05-20T16:46:55.000Z</time>
      </trkpt>
      <trkpt lat="45.13883" lon="5.51225">
        <ele>1129</ele>
        <time>2014-05-20T16:46:57.000Z</time>
      </trkpt>
      <trkpt lat="45.13882" lon="5.51225">
        <ele>1128.5999755859</ele>
        <time>2014-05-20T16:46:58.000Z</time>
      </trkpt>
      <trkpt lat="45.1388" lon="5.51227">
        <ele>1128</ele>
        <time>2014-05-20T16:46:59.000Z</time>
      </trkpt>
      <trkpt lat="45.13877" lon="5.51227">
        <ele>1127.5999755859</ele>
        <time>2014-05-20T16:47:00.000Z</time>
      </trkpt>
      <trkpt lat="45.13875" lon="5.51228">
        <ele>1127.1999511719</ele>
        <time>2014-05-20T16:47:01.000Z</time>
      </trkpt>
      <trkpt lat="45.13863" lon="5.51227">
        <ele>1127.1999511719</ele>
        <time>2014-05-20T16:47:06.000Z</time>
      </trkpt>
      <trkpt lat="45.13859" lon="5.51226">
        <ele>1127.1999511719</ele>
        <time>2014-05-20T16:47:12.000Z</time>
      </trkpt>
      <trkpt lat="45.13856" lon="5.51226">
        <ele>1127.1999511719</ele>
        <time>2014-05-20T16:47:20.000Z</time>
      </trkpt>
      <trkpt lat="45.13852" lon="5.5123">
        <ele>1127.1999511719</ele>
        <time>2014-05-20T16:47:26.000Z</time>
      </trkpt>
      <trkpt lat="45.1385" lon="5.51234">
        <ele>1127.1999511719</ele>
        <time>2014-05-20T16:47:34.000Z</time>
      </trkpt>
      <trkpt lat="45.13851" lon="5.51238">
        <ele>1127.1999511719</ele>
        <time>2014-05-20T16:47:37.000Z</time>
      </trkpt>
      <trkpt lat="45.1385" lon="5.5124">
        <ele>1126.8000488281</ele>
        <time>2014-05-20T16:47:38.000Z</time>
      </trkpt>
      <trkpt lat="45.1385" lon="5.51239">
        <ele>1126.4000244141</ele>
        <time>2014-05-20T16:47:39.000Z</time>
      </trkpt>
      <trkpt lat="45.13851" lon="5.51239">
        <ele>1125.8000488281</ele>
        <time>2014-05-20T16:47:40.000Z</time>
      </trkpt>
      <trkpt lat="45.1385" lon="5.51239">
        <ele>1125.4000244141</ele>
        <time>2014-05-20T16:47:41.000Z</time>
      </trkpt>
      <trkpt lat="45.1385" lon="5.51239">
        <ele>1125</ele>
        <time>2014-05-20T16:47:42.000Z</time>
      </trkpt>
      <trkpt lat="45.13849" lon="5.5124">
        <ele>1125</ele>
        <time>2014-05-20T16:47:43.000Z</time>
      </trkpt>
      <trkpt lat="45.13848" lon="5.51245">
        <ele>1124.5999755859</ele>
        <time>2014-05-20T16:47:47.000Z</time>
      </trkpt>
      <trkpt lat="45.13848" lon="5.51245">
        <ele>1124.1999511719</ele>
        <time>2014-05-20T16:47:48.000Z</time>
      </trkpt>
      <trkpt lat="45.13848" lon="5.51246">
        <ele>1123.5999755859</ele>
        <time>2014-05-20T16:47:49.000Z</time>
      </trkpt>
      <trkpt lat="45.13847" lon="5.51249">
        <ele>1123.1999511719</ele>
        <time>2014-05-20T16:47:50.000Z</time>
      </trkpt>
      <trkpt lat="45.13849" lon="5.5125">
        <ele>1122.8000488281</ele>
        <time>2014-05-20T16:47:51.000Z</time>
      </trkpt>
      <trkpt lat="45.1385" lon="5.51252">
        <ele>1122.4000244141</ele>
        <time>2014-05-20T16:47:52.000Z</time>
      </trkpt>
      <trkpt lat="45.13851" lon="5.51253">
        <ele>1122</ele>
        <time>2014-05-20T16:47:53.000Z</time>
      </trkpt>
      <trkpt lat="45.13852" lon="5.51255">
        <ele>1121.5999755859</ele>
        <time>2014-05-20T16:47:54.000Z</time>
      </trkpt>
      <trkpt lat="45.13853" lon="5.51255">
        <ele>1121.1999511719</ele>
        <time>2014-05-20T16:47:55.000Z</time>
      </trkpt>
      <trkpt lat="45.13853" lon="5.51255">
        <ele>1120.5999755859</ele>
        <time>2014-05-20T16:47:56.000Z</time>
      </trkpt>
      <trkpt lat="45.13854" lon="5.51255">
        <ele>1120.1999511719</ele>
        <time>2014-05-20T16:47:57.000Z</time>
      </trkpt>
      <trkpt lat="45.13854" lon="5.51255">
        <ele>1119.5999755859</ele>
        <time>2014-05-20T16:47:58.000Z</time>
      </trkpt>
      <trkpt lat="45.13854" lon="5.51255">
        <ele>1119.1999511719</ele>
        <time>2014-05-20T16:47:59.000Z</time>
      </trkpt>
      <trkpt lat="45.13854" lon="5.51255">
        <ele>1118.5999755859</ele>
        <time>2014-05-20T16:48:00.000Z</time>
      </trkpt>
      <trkpt lat="45.13858" lon="5.51257">
        <ele>1118.5999755859</ele>
        <time>2014-05-20T16:48:03.000Z</time>
      </trkpt>
      <trkpt lat="45.13863" lon="5.51258">
        <ele>1118.5999755859</ele>
        <time>2014-05-20T16:48:04.000Z</time>
      </trkpt>
      <trkpt lat="45.13871" lon="5.51261">
        <ele>1118.1999511719</ele>
        <time>2014-05-20T16:48:07.000Z</time>
      </trkpt>
      <trkpt lat="45.13873" lon="5.51262">
        <ele>1117.8000488281</ele>
        <time>2014-05-20T16:48:08.000Z</time>
      </trkpt>
      <trkpt lat="45.13875" lon="5.51263">
        <ele>1117.4000244141</ele>
        <time>2014-05-20T16:48:09.000Z</time>
      </trkpt>
      <trkpt lat="45.13877" lon="5.51264">
        <ele>1117</ele>
        <time>2014-05-20T16:48:10.000Z</time>
      </trkpt>
      <trkpt lat="45.13877" lon="5.51266">
        <ele>1116.5999755859</ele>
        <time>2014-05-20T16:48:11.000Z</time>
      </trkpt>
      <trkpt lat="45.13877" lon="5.51266">
        <ele>1116</ele>
        <time>2014-05-20T16:48:12.000Z</time>
      </trkpt>
      <trkpt lat="45.13878" lon="5.51266">
        <ele>1115.5999755859</ele>
        <time>2014-05-20T16:48:13.000Z</time>
      </trkpt>
      <trkpt lat="45.13878" lon="5.51267">
        <ele>1115</ele>
        <time>2014-05-20T16:48:14.000Z</time>
      </trkpt>
      <trkpt lat="45.13878" lon="5.51267">
        <ele>1114.4000244141</ele>
        <time>2014-05-20T16:48:15.000Z</time>
      </trkpt>
      <trkpt lat="45.13878" lon="5.51267">
        <ele>1114</ele>
        <time>2014-05-20T16:48:16.000Z</time>
      </trkpt>
      <trkpt lat="45.13879" lon="5.51269">
        <ele>1114</ele>
        <time>2014-05-20T16:48:18.000Z</time>
      </trkpt>
      <trkpt lat="45.13881" lon="5.51273">
        <ele>1114</ele>
        <time>2014-05-20T16:48:21.000Z</time>
      </trkpt>
      <trkpt lat="45.13882" lon="5.51277">
        <ele>1113.5999755859</ele>
        <time>2014-05-20T16:48:23.000Z</time>
      </trkpt>
      <trkpt lat="45.13884" lon="5.51278">
        <ele>1113</ele>
        <time>2014-05-20T16:48:24.000Z</time>
      </trkpt>
      <trkpt lat="45.13885" lon="5.51278">
        <ele>1112.5999755859</ele>
        <time>2014-05-20T16:48:25.000Z</time>
      </trkpt>
      <trkpt lat="45.13885" lon="5.51278">
        <ele>1111.4000244141</ele>
        <time>2014-05-20T16:48:26.000Z</time>
      </trkpt>
      <trkpt lat="45.13887" lon="5.51279">
        <ele>1110.8000488281</ele>
        <time>2014-05-20T16:48:27.000Z</time>
      </trkpt>
      <trkpt lat="45.13887" lon="5.51278">
        <ele>1110.1999511719</ele>
        <time>2014-05-20T16:48:28.000Z</time>
      </trkpt>
      <trkpt lat="45.13889" lon="5.51279">
        <ele>1109.5999755859</ele>
        <time>2014-05-20T16:48:29.000Z</time>
      </trkpt>
      <trkpt lat="45.13894" lon="5.51281">
        <ele>1109.5999755859</ele>
        <time>2014-05-20T16:48:32.000Z</time>
      </trkpt>
      <trkpt lat="45.13899" lon="5.51286">
        <ele>1109.1999511719</ele>
        <time>2014-05-20T16:48:36.000Z</time>
      </trkpt>
      <trkpt lat="45.139" lon="5.51287">
        <ele>1108.5999755859</ele>
        <time>2014-05-20T16:48:37.000Z</time>
      </trkpt>
      <trkpt lat="45.13901" lon="5.51288">
        <ele>1108.1999511719</ele>
        <time>2014-05-20T16:48:38.000Z</time>
      </trkpt>
      <trkpt lat="45.13902" lon="5.5129">
        <ele>1107.8000488281</ele>
        <time>2014-05-20T16:48:39.000Z</time>
      </trkpt>
      <trkpt lat="45.13903" lon="5.51292">
        <ele>1107.4000244141</ele>
        <time>2014-05-20T16:48:40.000Z</time>
      </trkpt>
      <trkpt lat="45.13909" lon="5.51297">
        <ele>1107</ele>
        <time>2014-05-20T16:48:43.000Z</time>
      </trkpt>
      <trkpt lat="45.1391" lon="5.51297">
        <ele>1106.5999755859</ele>
        <time>2014-05-20T16:48:44.000Z</time>
      </trkpt>
      <trkpt lat="45.13911" lon="5.51297">
        <ele>1106.1999511719</ele>
        <time>2014-05-20T16:48:45.000Z</time>
      </trkpt>
      <trkpt lat="45.13912" lon="5.51297">
        <ele>1105.8000488281</ele>
        <time>2014-05-20T16:48:46.000Z</time>
      </trkpt>
      <trkpt lat="45.13913" lon="5.51299">
        <ele>1105.4000244141</ele>
        <time>2014-05-20T16:48:47.000Z</time>
      </trkpt>
      <trkpt lat="45.13915" lon="5.51302">
        <ele>1105.4000244141</ele>
        <time>2014-05-20T16:48:50.000Z</time>
      </trkpt>
      <trkpt lat="45.13915" lon="5.51303">
        <ele>1105.4000244141</ele>
        <time>2014-05-20T16:48:56.000Z</time>
      </trkpt>
      <trkpt lat="45.13915" lon="5.51303">
        <ele>1105.4000244141</ele>
        <time>2014-05-20T16:49:11.000Z</time>
      </trkpt>
      <trkpt lat="45.13918" lon="5.51306">
        <ele>1105.4000244141</ele>
        <time>2014-05-20T16:49:18.000Z</time>
      </trkpt>
      <trkpt lat="45.13922" lon="5.51307">
        <ele>1104.8000488281</ele>
        <time>2014-05-20T16:49:22.000Z</time>
      </trkpt>
      <trkpt lat="45.13923" lon="5.51307">
        <ele>1104.4000244141</ele>
        <time>2014-05-20T16:49:23.000Z</time>
      </trkpt>
      <trkpt lat="45.13925" lon="5.51308">
        <ele>1104</ele>
        <time>2014-05-20T16:49:24.000Z</time>
      </trkpt>
      <trkpt lat="45.13926" lon="5.5131">
        <ele>1103.5999755859</ele>
        <time>2014-05-20T16:49:25.000Z</time>
      </trkpt>
      <trkpt lat="45.13927" lon="5.51312">
        <ele>1103.1999511719</ele>
        <time>2014-05-20T16:49:26.000Z</time>
      </trkpt>
      <trkpt lat="45.13931" lon="5.51321">
        <ele>1102.8000488281</ele>
        <time>2014-05-20T16:49:32.000Z</time>
      </trkpt>
      <trkpt lat="45.13932" lon="5.51326">
        <ele>1102.1999511719</ele>
        <time>2014-05-20T16:49:33.000Z</time>
      </trkpt>
      <trkpt lat="45.13932" lon="5.51329">
        <ele>1101.8000488281</ele>
        <time>2014-05-20T16:49:34.000Z</time>
      </trkpt>
      <trkpt lat="45.13932" lon="5.51333">
        <ele>1101.1999511719</ele>
        <time>2014-05-20T16:49:35.000Z</time>
      </trkpt>
      <trkpt lat="45.13932" lon="5.51335">
        <ele>1100.5999755859</ele>
        <time>2014-05-20T16:49:36.000Z</time>
      </trkpt>
      <trkpt lat="45.13931" lon="5.51339">
        <ele>1100</ele>
        <time>2014-05-20T16:49:37.000Z</time>
      </trkpt>
      <trkpt lat="45.13929" lon="5.51342">
        <ele>1099.1999511719</ele>
        <time>2014-05-20T16:49:38.000Z</time>
      </trkpt>
      <trkpt lat="45.13928" lon="5.51347">
        <ele>1098.5999755859</ele>
        <time>2014-05-20T16:49:39.000Z</time>
      </trkpt>
      <trkpt lat="45.13925" lon="5.51351">
        <ele>1097.4000244141</ele>
        <time>2014-05-20T16:49:40.000Z</time>
      </trkpt>
      <trkpt lat="45.13923" lon="5.51354">
        <ele>1096.8000488281</ele>
        <time>2014-05-20T16:49:41.000Z</time>
      </trkpt>
      <trkpt lat="45.13922" lon="5.51357">
        <ele>1096</ele>
        <time>2014-05-20T16:49:42.000Z</time>
      </trkpt>
      <trkpt lat="45.13921" lon="5.51359">
        <ele>1095.4000244141</ele>
        <time>2014-05-20T16:49:43.000Z</time>
      </trkpt>
      <trkpt lat="45.13921" lon="5.51361">
        <ele>1094.5999755859</ele>
        <time>2014-05-20T16:49:44.000Z</time>
      </trkpt>
      <trkpt lat="45.1392" lon="5.51362">
        <ele>1093.8000488281</ele>
        <time>2014-05-20T16:49:45.000Z</time>
      </trkpt>
      <trkpt lat="45.13921" lon="5.51364">
        <ele>1093.1999511719</ele>
        <time>2014-05-20T16:49:46.000Z</time>
      </trkpt>
      <trkpt lat="45.1392" lon="5.51365">
        <ele>1092.4000244141</ele>
        <time>2014-05-20T16:49:47.000Z</time>
      </trkpt>
      <trkpt lat="45.13919" lon="5.51367">
        <ele>1091.8000488281</ele>
        <time>2014-05-20T16:49:48.000Z</time>
      </trkpt>
      <trkpt lat="45.13919" lon="5.51369">
        <ele>1091.8000488281</ele>
        <time>2014-05-20T16:49:55.000Z</time>
      </trkpt>
      <trkpt lat="45.13921" lon="5.51375">
        <ele>1091.8000488281</ele>
        <time>2014-05-20T16:50:00.000Z</time>
      </trkpt>
      <trkpt lat="45.13923" lon="5.51378">
        <ele>1091.1999511719</ele>
        <time>2014-05-20T16:50:01.000Z</time>
      </trkpt>
      <trkpt lat="45.13926" lon="5.51381">
        <ele>1090.8000488281</ele>
        <time>2014-05-20T16:50:02.000Z</time>
      </trkpt>
      <trkpt lat="45.13929" lon="5.51385">
        <ele>1090.1999511719</ele>
        <time>2014-05-20T16:50:03.000Z</time>
      </trkpt>
      <trkpt lat="45.13932" lon="5.51389">
        <ele>1089</ele>
        <time>2014-05-20T16:50:04.000Z</time>
      </trkpt>
      <trkpt lat="45.13935" lon="5.5139">
        <ele>1088.1999511719</ele>
        <time>2014-05-20T16:50:05.000Z</time>
      </trkpt>
      <trkpt lat="45.13937" lon="5.51392">
        <ele>1087.5999755859</ele>
        <time>2014-05-20T16:50:06.000Z</time>
      </trkpt>
      <trkpt lat="45.13939" lon="5.51394">
        <ele>1087</ele>
        <time>2014-05-20T16:50:07.000Z</time>
      </trkpt>
      <trkpt lat="45.13942" lon="5.51398">
        <ele>1086.1999511719</ele>
        <time>2014-05-20T16:50:08.000Z</time>
      </trkpt>
      <trkpt lat="45.13943" lon="5.51402">
        <ele>1085.5999755859</ele>
        <time>2014-05-20T16:50:09.000Z</time>
      </trkpt>
      <trkpt lat="45.13947" lon="5.51406">
        <ele>1085</ele>
        <time>2014-05-20T16:50:10.000Z</time>
      </trkpt>
      <trkpt lat="45.13949" lon="5.51409">
        <ele>1084.4000244141</ele>
        <time>2014-05-20T16:50:11.000Z</time>
      </trkpt>
      <trkpt lat="45.13952" lon="5.51412">
        <ele>1083.1999511719</ele>
        <time>2014-05-20T16:50:12.000Z</time>
      </trkpt>
      <trkpt lat="45.13955" lon="5.51416">
        <ele>1082.1999511719</ele>
        <time>2014-05-20T16:50:13.000Z</time>
      </trkpt>
      <trkpt lat="45.13957" lon="5.51418">
        <ele>1081.1999511719</ele>
        <time>2014-05-20T16:50:14.000Z</time>
      </trkpt>
      <trkpt lat="45.13959" lon="5.51419">
        <ele>1080</ele>
        <time>2014-05-20T16:50:15.000Z</time>
      </trkpt>
      <trkpt lat="45.13962" lon="5.51421">
        <ele>1079</ele>
        <time>2014-05-20T16:50:16.000Z</time>
      </trkpt>
      <trkpt lat="45.13965" lon="5.5142">
        <ele>1078</ele>
        <time>2014-05-20T16:50:17.000Z</time>
      </trkpt>
      <trkpt lat="45.13968" lon="5.5142">
        <ele>1076.8000488281</ele>
        <time>2014-05-20T16:50:18.000Z</time>
      </trkpt>
      <trkpt lat="45.1397" lon="5.5142">
        <ele>1075.8000488281</ele>
        <time>2014-05-20T16:50:19.000Z</time>
      </trkpt>
      <trkpt lat="45.13972" lon="5.5142">
        <ele>1074.8000488281</ele>
        <time>2014-05-20T16:50:20.000Z</time>
      </trkpt>
      <trkpt lat="45.13974" lon="5.51421">
        <ele>1074.8000488281</ele>
        <time>2014-05-20T16:50:21.000Z</time>
      </trkpt>
      <trkpt lat="45.13978" lon="5.51422">
        <ele>1074.8000488281</ele>
        <time>2014-05-20T16:50:25.000Z</time>
      </trkpt>
      <trkpt lat="45.13979" lon="5.51422">
        <ele>1074.1999511719</ele>
        <time>2014-05-20T16:50:27.000Z</time>
      </trkpt>
      <trkpt lat="45.13981" lon="5.51421">
        <ele>1073.5999755859</ele>
        <time>2014-05-20T16:50:28.000Z</time>
      </trkpt>
      <trkpt lat="45.1399" lon="5.51423">
        <ele>1072.5999755859</ele>
        <time>2014-05-20T16:50:29.000Z</time>
      </trkpt>
      <trkpt lat="45.13991" lon="5.51423">
        <ele>1072.1999511719</ele>
        <time>2014-05-20T16:50:30.000Z</time>
      </trkpt>
      <trkpt lat="45.13992" lon="5.51424">
        <ele>1072.1999511719</ele>
        <time>2014-05-20T16:50:31.000Z</time>
      </trkpt>
      <trkpt lat="45.13993" lon="5.51426">
        <ele>1071.8000488281</ele>
        <time>2014-05-20T16:50:33.000Z</time>
      </trkpt>
      <trkpt lat="45.13998" lon="5.51428">
        <ele>1071.4000244141</ele>
        <time>2014-05-20T16:50:34.000Z</time>
      </trkpt>
      <trkpt lat="45.13998" lon="5.51428">
        <ele>1071</ele>
        <time>2014-05-20T16:50:35.000Z</time>
      </trkpt>
      <trkpt lat="45.13998" lon="5.51428">
        <ele>1070.5999755859</ele>
        <time>2014-05-20T16:50:36.000Z</time>
      </trkpt>
      <trkpt lat="45.13998" lon="5.51428">
        <ele>1070.1999511719</ele>
        <time>2014-05-20T16:50:37.000Z</time>
      </trkpt>
      <trkpt lat="45.13998" lon="5.51428">
        <ele>1070.1999511719</ele>
        <time>2014-05-20T16:50:38.000Z</time>
      </trkpt>
      <trkpt lat="45.13998" lon="5.51428">
        <ele>1070.1999511719</ele>
        <time>2014-05-20T16:50:50.000Z</time>
      </trkpt>
      <trkpt lat="45.1401" lon="5.5143">
        <ele>1070.1999511719</ele>
        <time>2014-05-20T16:50:58.000Z</time>
      </trkpt>
      <trkpt lat="45.14014" lon="5.51431">
        <ele>1070.1999511719</ele>
        <time>2014-05-20T16:51:04.000Z</time>
      </trkpt>
      <trkpt lat="45.14015" lon="5.51432">
        <ele>1070.1999511719</ele>
        <time>2014-05-20T16:51:05.000Z</time>
      </trkpt>
      <trkpt lat="45.14021" lon="5.51432">
        <ele>1069.5999755859</ele>
        <time>2014-05-20T16:51:08.000Z</time>
      </trkpt>
      <trkpt lat="45.14023" lon="5.51431">
        <ele>1069.1999511719</ele>
        <time>2014-05-20T16:51:09.000Z</time>
      </trkpt>
      <trkpt lat="45.14025" lon="5.51432">
        <ele>1068.5999755859</ele>
        <time>2014-05-20T16:51:10.000Z</time>
      </trkpt>
      <trkpt lat="45.14029" lon="5.5143">
        <ele>1068</ele>
        <time>2014-05-20T16:51:11.000Z</time>
      </trkpt>
      <trkpt lat="45.14032" lon="5.5143">
        <ele>1067.1999511719</ele>
        <time>2014-05-20T16:51:12.000Z</time>
      </trkpt>
      <trkpt lat="45.14033" lon="5.51431">
        <ele>1066.5999755859</ele>
        <time>2014-05-20T16:51:13.000Z</time>
      </trkpt>
      <trkpt lat="45.14037" lon="5.51431">
        <ele>1065.8000488281</ele>
        <time>2014-05-20T16:51:14.000Z</time>
      </trkpt>
      <trkpt lat="45.1404" lon="5.51432">
        <ele>1065.1999511719</ele>
        <time>2014-05-20T16:51:15.000Z</time>
      </trkpt>
      <trkpt lat="45.14041" lon="5.51433">
        <ele>1064.4000244141</ele>
        <time>2014-05-20T16:51:16.000Z</time>
      </trkpt>
      <trkpt lat="45.14042" lon="5.51435">
        <ele>1063.8000488281</ele>
        <time>2014-05-20T16:51:17.000Z</time>
      </trkpt>
      <trkpt lat="45.14044" lon="5.51435">
        <ele>1062.4000244141</ele>
        <time>2014-05-20T16:51:18.000Z</time>
      </trkpt>
      <trkpt lat="45.14046" lon="5.51435">
        <ele>1061.8000488281</ele>
        <time>2014-05-20T16:51:19.000Z</time>
      </trkpt>
      <trkpt lat="45.14047" lon="5.51436">
        <ele>1061.1999511719</ele>
        <time>2014-05-20T16:51:20.000Z</time>
      </trkpt>
      <trkpt lat="45.14052" lon="5.51437">
        <ele>1060.5999755859</ele>
        <time>2014-05-20T16:51:21.000Z</time>
      </trkpt>
      <trkpt lat="45.14052" lon="5.51437">
        <ele>1060.5999755859</ele>
        <time>2014-05-20T16:51:22.000Z</time>
      </trkpt>
      <trkpt lat="45.14057" lon="5.51446">
        <ele>1060.5999755859</ele>
        <time>2014-05-20T16:51:26.000Z</time>
      </trkpt>
      <trkpt lat="45.14058" lon="5.5145">
        <ele>1060.1999511719</ele>
        <time>2014-05-20T16:51:27.000Z</time>
      </trkpt>
      <trkpt lat="45.14059" lon="5.51453">
        <ele>1059.5999755859</ele>
        <time>2014-05-20T16:51:28.000Z</time>
      </trkpt>
      <trkpt lat="45.14059" lon="5.51456">
        <ele>1059.1999511719</ele>
        <time>2014-05-20T16:51:29.000Z</time>
      </trkpt>
      <trkpt lat="45.1406" lon="5.51459">
        <ele>1058.5999755859</ele>
        <time>2014-05-20T16:51:30.000Z</time>
      </trkpt>
      <trkpt lat="45.1406" lon="5.51462">
        <ele>1058</ele>
        <time>2014-05-20T16:51:31.000Z</time>
      </trkpt>
      <trkpt lat="45.14059" lon="5.51465">
        <ele>1057.4000244141</ele>
        <time>2014-05-20T16:51:32.000Z</time>
      </trkpt>
      <trkpt lat="45.14059" lon="5.51471">
        <ele>1056.5999755859</ele>
        <time>2014-05-20T16:51:33.000Z</time>
      </trkpt>
      <trkpt lat="45.14059" lon="5.51478">
        <ele>1056</ele>
        <time>2014-05-20T16:51:34.000Z</time>
      </trkpt>
      <trkpt lat="45.14059" lon="5.51484">
        <ele>1055.1999511719</ele>
        <time>2014-05-20T16:51:35.000Z</time>
      </trkpt>
      <trkpt lat="45.14059" lon="5.5149">
        <ele>1054.4000244141</ele>
        <time>2014-05-20T16:51:36.000Z</time>
      </trkpt>
      <trkpt lat="45.14059" lon="5.51496">
        <ele>1053.4000244141</ele>
        <time>2014-05-20T16:51:37.000Z</time>
      </trkpt>
      <trkpt lat="45.14058" lon="5.51503">
        <ele>1052.5999755859</ele>
        <time>2014-05-20T16:51:38.000Z</time>
      </trkpt>
      <trkpt lat="45.14056" lon="5.51511">
        <ele>1051.5999755859</ele>
        <time>2014-05-20T16:51:39.000Z</time>
      </trkpt>
      <trkpt lat="45.14055" lon="5.51517">
        <ele>1050.5999755859</ele>
        <time>2014-05-20T16:51:40.000Z</time>
      </trkpt>
      <trkpt lat="45.14054" lon="5.51525">
        <ele>1049.5999755859</ele>
        <time>2014-05-20T16:51:41.000Z</time>
      </trkpt>
      <trkpt lat="45.14052" lon="5.5153">
        <ele>1048.5999755859</ele>
        <time>2014-05-20T16:51:42.000Z</time>
      </trkpt>
      <trkpt lat="45.14053" lon="5.51531">
        <ele>1046.8000488281</ele>
        <time>2014-05-20T16:51:43.000Z</time>
      </trkpt>
      <trkpt lat="45.14053" lon="5.51531">
        <ele>1046</ele>
        <time>2014-05-20T16:51:44.000Z</time>
      </trkpt>
      <trkpt lat="45.14053" lon="5.51531">
        <ele>1045.1999511719</ele>
        <time>2014-05-20T16:51:45.000Z</time>
      </trkpt>
      <trkpt lat="45.14053" lon="5.51531">
        <ele>1044.4000244141</ele>
        <time>2014-05-20T16:51:46.000Z</time>
      </trkpt>
      <trkpt lat="45.14053" lon="5.51531">
        <ele>1043.5999755859</ele>
        <time>2014-05-20T16:51:47.000Z</time>
      </trkpt>
      <trkpt lat="45.14054" lon="5.51531">
        <ele>1042.5999755859</ele>
        <time>2014-05-20T16:51:48.000Z</time>
      </trkpt>
      <trkpt lat="45.14053" lon="5.51532">
        <ele>1042.5999755859</ele>
        <time>2014-05-20T16:51:51.000Z</time>
      </trkpt>
      <trkpt lat="45.14053" lon="5.51532">
        <ele>1042.5999755859</ele>
        <time>2014-05-20T16:52:00.000Z</time>
      </trkpt>
      <trkpt lat="45.14051" lon="5.51545">
        <ele>1042.5999755859</ele>
        <time>2014-05-20T16:52:04.000Z</time>
      </trkpt>
      <trkpt lat="45.1405" lon="5.51561">
        <ele>1041.8000488281</ele>
        <time>2014-05-20T16:52:08.000Z</time>
      </trkpt>
      <trkpt lat="45.1405" lon="5.51567">
        <ele>1041.4000244141</ele>
        <time>2014-05-20T16:52:09.000Z</time>
      </trkpt>
      <trkpt lat="45.14049" lon="5.51574">
        <ele>1040.8000488281</ele>
        <time>2014-05-20T16:52:10.000Z</time>
      </trkpt>
      <trkpt lat="45.14048" lon="5.5158">
        <ele>1040.1999511719</ele>
        <time>2014-05-20T16:52:11.000Z</time>
      </trkpt>
      <trkpt lat="45.14048" lon="5.51586">
        <ele>1039.5999755859</ele>
        <time>2014-05-20T16:52:12.000Z</time>
      </trkpt>
      <trkpt lat="45.14047" lon="5.51592">
        <ele>1039</ele>
        <time>2014-05-20T16:52:13.000Z</time>
      </trkpt>
      <trkpt lat="45.14047" lon="5.51597">
        <ele>1038.4000244141</ele>
        <time>2014-05-20T16:52:14.000Z</time>
      </trkpt>
      <trkpt lat="45.14047" lon="5.51601">
        <ele>1037.8000488281</ele>
        <time>2014-05-20T16:52:15.000Z</time>
      </trkpt>
      <trkpt lat="45.14045" lon="5.51605">
        <ele>1037.4000244141</ele>
        <time>2014-05-20T16:52:16.000Z</time>
      </trkpt>
      <trkpt lat="45.14044" lon="5.51609">
        <ele>1037</ele>
        <time>2014-05-20T16:52:17.000Z</time>
      </trkpt>
      <trkpt lat="45.14043" lon="5.51614">
        <ele>1036.5999755859</ele>
        <time>2014-05-20T16:52:18.000Z</time>
      </trkpt>
      <trkpt lat="45.14042" lon="5.51618">
        <ele>1036.1999511719</ele>
        <time>2014-05-20T16:52:19.000Z</time>
      </trkpt>
      <trkpt lat="45.14041" lon="5.51624">
        <ele>1035.5999755859</ele>
        <time>2014-05-20T16:52:20.000Z</time>
      </trkpt>
      <trkpt lat="45.14039" lon="5.5163">
        <ele>1035.5999755859</ele>
        <time>2014-05-20T16:52:21.000Z</time>
      </trkpt>
      <trkpt lat="45.1403" lon="5.51676">
        <ele>1035.5999755859</ele>
        <time>2014-05-20T16:52:28.000Z</time>
      </trkpt>
      <trkpt lat="45.14021" lon="5.51707">
        <ele>1035.1999511719</ele>
        <time>2014-05-20T16:52:32.000Z</time>
      </trkpt>
      <trkpt lat="45.14018" lon="5.51714">
        <ele>1034.4000244141</ele>
        <time>2014-05-20T16:52:33.000Z</time>
      </trkpt>
      <trkpt lat="45.14015" lon="5.51721">
        <ele>1034</ele>
        <time>2014-05-20T16:52:34.000Z</time>
      </trkpt>
      <trkpt lat="45.14011" lon="5.51727">
        <ele>1033.5999755859</ele>
        <time>2014-05-20T16:52:35.000Z</time>
      </trkpt>
      <trkpt lat="45.14008" lon="5.51732">
        <ele>1033.5999755859</ele>
        <time>2014-05-20T16:52:36.000Z</time>
      </trkpt>
      <trkpt lat="45.14006" lon="5.51738">
        <ele>1033.5999755859</ele>
        <time>2014-05-20T16:52:38.000Z</time>
      </trkpt>
      <trkpt lat="45.14003" lon="5.51741">
        <ele>1033</ele>
        <time>2014-05-20T16:52:40.000Z</time>
      </trkpt>
      <trkpt lat="45.14003" lon="5.51742">
        <ele>1032.5999755859</ele>
        <time>2014-05-20T16:52:41.000Z</time>
      </trkpt>
      <trkpt lat="45.14003" lon="5.51744">
        <ele>1032.1999511719</ele>
        <time>2014-05-20T16:52:42.000Z</time>
      </trkpt>
      <trkpt lat="45.14003" lon="5.51745">
        <ele>1031.8000488281</ele>
        <time>2014-05-20T16:52:43.000Z</time>
      </trkpt>
      <trkpt lat="45.14003" lon="5.51746">
        <ele>1031.1999511719</ele>
        <time>2014-05-20T16:52:44.000Z</time>
      </trkpt>
      <trkpt lat="45.14004" lon="5.51748">
        <ele>1031.1999511719</ele>
        <time>2014-05-20T16:52:48.000Z</time>
      </trkpt>
      <trkpt lat="45.14004" lon="5.51751">
        <ele>1031.1999511719</ele>
        <time>2014-05-20T16:52:58.000Z</time>
      </trkpt>
      <trkpt lat="45.14004" lon="5.5177">
        <ele>1030.8000488281</ele>
        <time>2014-05-20T16:53:01.000Z</time>
      </trkpt>
      <trkpt lat="45.14003" lon="5.51779">
        <ele>1030.4000244141</ele>
        <time>2014-05-20T16:53:02.000Z</time>
      </trkpt>
      <trkpt lat="45.14002" lon="5.51787">
        <ele>1029.8000488281</ele>
        <time>2014-05-20T16:53:03.000Z</time>
      </trkpt>
      <trkpt lat="45.14001" lon="5.51796">
        <ele>1029</ele>
        <time>2014-05-20T16:53:04.000Z</time>
      </trkpt>
      <trkpt lat="45.14001" lon="5.51802">
        <ele>1028.4000244141</ele>
        <time>2014-05-20T16:53:05.000Z</time>
      </trkpt>
      <trkpt lat="45.14" lon="5.51807">
        <ele>1027.4000244141</ele>
        <time>2014-05-20T16:53:06.000Z</time>
      </trkpt>
      <trkpt lat="45.14" lon="5.5181">
        <ele>1026.5999755859</ele>
        <time>2014-05-20T16:53:07.000Z</time>
      </trkpt>
      <trkpt lat="45.14" lon="5.51813">
        <ele>1025.5999755859</ele>
        <time>2014-05-20T16:53:08.000Z</time>
      </trkpt>
      <trkpt lat="45.14" lon="5.51817">
        <ele>1024.8000488281</ele>
        <time>2014-05-20T16:53:09.000Z</time>
      </trkpt>
      <trkpt lat="45.14" lon="5.5182">
        <ele>1023.799987793</ele>
        <time>2014-05-20T16:53:10.000Z</time>
      </trkpt>
      <trkpt lat="45.14" lon="5.51822">
        <ele>1023</ele>
        <time>2014-05-20T16:53:11.000Z</time>
      </trkpt>
      <trkpt lat="45.13999" lon="5.51823">
        <ele>1022</ele>
        <time>2014-05-20T16:53:12.000Z</time>
      </trkpt>
      <trkpt lat="45.13999" lon="5.51824">
        <ele>1021.200012207</ele>
        <time>2014-05-20T16:53:13.000Z</time>
      </trkpt>
      <trkpt lat="45.13999" lon="5.51825">
        <ele>1021.200012207</ele>
        <time>2014-05-20T16:53:17.000Z</time>
      </trkpt>
      <trkpt lat="45.13999" lon="5.51825">
        <ele>1021.200012207</ele>
        <time>2014-05-20T16:53:27.000Z</time>
      </trkpt>
      <trkpt lat="45.14" lon="5.51828">
        <ele>1021.200012207</ele>
        <time>2014-05-20T16:53:32.000Z</time>
      </trkpt>
      <trkpt lat="45.14" lon="5.51829">
        <ele>1021.200012207</ele>
        <time>2014-05-20T16:53:39.000Z</time>
      </trkpt>
      <trkpt lat="45.14" lon="5.51829">
        <ele>1020.799987793</ele>
        <time>2014-05-20T16:53:48.000Z</time>
      </trkpt>
      <trkpt lat="45.14" lon="5.51829">
        <ele>1020.4000244141</ele>
        <time>2014-05-20T16:53:49.000Z</time>
      </trkpt>
      <trkpt lat="45.14" lon="5.51829">
        <ele>1020</ele>
        <time>2014-05-20T16:53:50.000Z</time>
      </trkpt>
      <trkpt lat="45.14" lon="5.51829">
        <ele>1019.5999755859</ele>
        <time>2014-05-20T16:53:51.000Z</time>
      </trkpt>
      <trkpt lat="45.14" lon="5.51829">
        <ele>1019.200012207</ele>
        <time>2014-05-20T16:53:52.000Z</time>
      </trkpt>
      <trkpt lat="45.14" lon="5.51829">
        <ele>1019.200012207</ele>
        <time>2014-05-20T16:54:03.000Z</time>
      </trkpt>
      <trkpt lat="45.14" lon="5.5183">
        <ele>1019.200012207</ele>
        <time>2014-05-20T16:54:09.000Z</time>
      </trkpt>
      <trkpt lat="45.14" lon="5.51831">
        <ele>1019.200012207</ele>
        <time>2014-05-20T16:54:10.000Z</time>
      </trkpt>
      <trkpt lat="45.13998" lon="5.51841">
        <ele>1019.200012207</ele>
        <time>2014-05-20T16:54:14.000Z</time>
      </trkpt>
      <trkpt lat="45.13997" lon="5.51846">
        <ele>1019.200012207</ele>
        <time>2014-05-20T16:54:15.000Z</time>
      </trkpt>
      <trkpt lat="45.13991" lon="5.51872">
        <ele>1018.5999755859</ele>
        <time>2014-05-20T16:54:20.000Z</time>
      </trkpt>
      <trkpt lat="45.13991" lon="5.51877">
        <ele>1018.200012207</ele>
        <time>2014-05-20T16:54:21.000Z</time>
      </trkpt>
      <trkpt lat="45.1399" lon="5.51882">
        <ele>1017.799987793</ele>
        <time>2014-05-20T16:54:22.000Z</time>
      </trkpt>
      <trkpt lat="45.13989" lon="5.51887">
        <ele>1017.200012207</ele>
        <time>2014-05-20T16:54:23.000Z</time>
      </trkpt>
      <trkpt lat="45.13988" lon="5.51893">
        <ele>1016.799987793</ele>
        <time>2014-05-20T16:54:24.000Z</time>
      </trkpt>
      <trkpt lat="45.13987" lon="5.51905">
        <ele>1016.799987793</ele>
        <time>2014-05-20T16:54:26.000Z</time>
      </trkpt>
      <trkpt lat="45.13981" lon="5.51953">
        <ele>1016.799987793</ele>
        <time>2014-05-20T16:54:33.000Z</time>
      </trkpt>
      <trkpt lat="45.13977" lon="5.51994">
        <ele>1016.4000244141</ele>
        <time>2014-05-20T16:54:39.000Z</time>
      </trkpt>
      <trkpt lat="45.13976" lon="5.52001">
        <ele>1016</ele>
        <time>2014-05-20T16:54:40.000Z</time>
      </trkpt>
      <trkpt lat="45.13975" lon="5.52007">
        <ele>1015.5999755859</ele>
        <time>2014-05-20T16:54:41.000Z</time>
      </trkpt>
      <trkpt lat="45.13975" lon="5.52013">
        <ele>1015</ele>
        <time>2014-05-20T16:54:42.000Z</time>
      </trkpt>
      <trkpt lat="45.13974" lon="5.52019">
        <ele>1014.4000244141</ele>
        <time>2014-05-20T16:54:43.000Z</time>
      </trkpt>
      <trkpt lat="45.13973" lon="5.52024">
        <ele>1013.799987793</ele>
        <time>2014-05-20T16:54:44.000Z</time>
      </trkpt>
      <trkpt lat="45.13973" lon="5.5203">
        <ele>1013.200012207</ele>
        <time>2014-05-20T16:54:45.000Z</time>
      </trkpt>
      <trkpt lat="45.13972" lon="5.52034">
        <ele>1012.5999755859</ele>
        <time>2014-05-20T16:54:46.000Z</time>
      </trkpt>
      <trkpt lat="45.13972" lon="5.52041">
        <ele>1012.5999755859</ele>
        <time>2014-05-20T16:54:48.000Z</time>
      </trkpt>
      <trkpt lat="45.13972" lon="5.52044">
        <ele>1012.5999755859</ele>
        <time>2014-05-20T16:54:53.000Z</time>
      </trkpt>
      <trkpt lat="45.13972" lon="5.5205">
        <ele>1012.5999755859</ele>
        <time>2014-05-20T16:54:59.000Z</time>
      </trkpt>
      <trkpt lat="45.13969" lon="5.52072">
        <ele>1012.200012207</ele>
        <time>2014-05-20T16:55:03.000Z</time>
      </trkpt>
      <trkpt lat="45.13968" lon="5.52079">
        <ele>1011.799987793</ele>
        <time>2014-05-20T16:55:04.000Z</time>
      </trkpt>
      <trkpt lat="45.13968" lon="5.52086">
        <ele>1011.4000244141</ele>
        <time>2014-05-20T16:55:05.000Z</time>
      </trkpt>
      <trkpt lat="45.13967" lon="5.52094">
        <ele>1011</ele>
        <time>2014-05-20T16:55:06.000Z</time>
      </trkpt>
      <trkpt lat="45.13966" lon="5.52101">
        <ele>1010.5999755859</ele>
        <time>2014-05-20T16:55:07.000Z</time>
      </trkpt>
      <trkpt lat="45.13965" lon="5.52116">
        <ele>1010.5999755859</ele>
        <time>2014-05-20T16:55:09.000Z</time>
      </trkpt>
      <trkpt lat="45.13957" lon="5.52189">
        <ele>1010.200012207</ele>
        <time>2014-05-20T16:55:18.000Z</time>
      </trkpt>
      <trkpt lat="45.13956" lon="5.52197">
        <ele>1009.5999755859</ele>
        <time>2014-05-20T16:55:19.000Z</time>
      </trkpt>
      <trkpt lat="45.13955" lon="5.52205">
        <ele>1009.200012207</ele>
        <time>2014-05-20T16:55:20.000Z</time>
      </trkpt>
      <trkpt lat="45.13954" lon="5.52212">
        <ele>1008.5999755859</ele>
        <time>2014-05-20T16:55:21.000Z</time>
      </trkpt>
      <trkpt lat="45.13953" lon="5.52219">
        <ele>1008.200012207</ele>
        <time>2014-05-20T16:55:22.000Z</time>
      </trkpt>
      <trkpt lat="45.1395" lon="5.52246">
        <ele>1008.200012207</ele>
        <time>2014-05-20T16:55:26.000Z</time>
      </trkpt>
      <trkpt lat="45.13941" lon="5.52256">
        <ele>1008.200012207</ele>
        <time>2014-05-20T16:55:29.000Z</time>
      </trkpt>
      <trkpt lat="45.13932" lon="5.52257">
        <ele>1008.200012207</ele>
        <time>2014-05-20T16:55:31.000Z</time>
      </trkpt>
      <trkpt lat="45.13916" lon="5.52258">
        <ele>1008.200012207</ele>
        <time>2014-05-20T16:55:34.000Z</time>
      </trkpt>
      <trkpt lat="45.13883" lon="5.52262">
        <ele>1008.200012207</ele>
        <time>2014-05-20T16:55:40.000Z</time>
      </trkpt>
      <trkpt lat="45.13832" lon="5.52268">
        <ele>1008.200012207</ele>
        <time>2014-05-20T16:55:49.000Z</time>
      </trkpt>
      <trkpt lat="45.1379" lon="5.52271">
        <ele>1008.200012207</ele>
        <time>2014-05-20T16:55:56.000Z</time>
      </trkpt>
      <trkpt lat="45.13746" lon="5.5228">
        <ele>1008.200012207</ele>
        <time>2014-05-20T16:56:03.000Z</time>
      </trkpt>
      <trkpt lat="45.13728" lon="5.52287">
        <ele>1008.200012207</ele>
        <time>2014-05-20T16:56:06.000Z</time>
      </trkpt>
      <trkpt lat="45.13718" lon="5.52296">
        <ele>1008.200012207</ele>
        <time>2014-05-20T16:56:08.000Z</time>
      </trkpt>
      <trkpt lat="45.13697" lon="5.52314">
        <ele>1008.200012207</ele>
        <time>2014-05-20T16:56:12.000Z</time>
      </trkpt>
      <trkpt lat="45.13692" lon="5.52316">
        <ele>1007.799987793</ele>
        <time>2014-05-20T16:56:13.000Z</time>
      </trkpt>
      <trkpt lat="45.13686" lon="5.52316">
        <ele>1007.4000244141</ele>
        <time>2014-05-20T16:56:14.000Z</time>
      </trkpt>
      <trkpt lat="45.1368" lon="5.52316">
        <ele>1007</ele>
        <time>2014-05-20T16:56:15.000Z</time>
      </trkpt>
      <trkpt lat="45.13674" lon="5.52315">
        <ele>1006</ele>
        <time>2014-05-20T16:56:16.000Z</time>
      </trkpt>
      <trkpt lat="45.13663" lon="5.52314">
        <ele>1006</ele>
        <time>2014-05-20T16:56:18.000Z</time>
      </trkpt>
      <trkpt lat="45.13639" lon="5.52314">
        <ele>1006</ele>
        <time>2014-05-20T16:56:22.000Z</time>
      </trkpt>
      <trkpt lat="45.13626" lon="5.52317">
        <ele>1006</ele>
        <time>2014-05-20T16:56:24.000Z</time>
      </trkpt>
      <trkpt lat="45.13574" lon="5.52334">
        <ele>1006</ele>
        <time>2014-05-20T16:56:32.000Z</time>
      </trkpt>
      <trkpt lat="45.13549" lon="5.52343">
        <ele>1005.5999755859</ele>
        <time>2014-05-20T16:56:36.000Z</time>
      </trkpt>
      <trkpt lat="45.13543" lon="5.52345">
        <ele>1005.200012207</ele>
        <time>2014-05-20T16:56:37.000Z</time>
      </trkpt>
      <trkpt lat="45.13536" lon="5.52348">
        <ele>1004.799987793</ele>
        <time>2014-05-20T16:56:38.000Z</time>
      </trkpt>
      <trkpt lat="45.1353" lon="5.52352">
        <ele>1004.4000244141</ele>
        <time>2014-05-20T16:56:39.000Z</time>
      </trkpt>
      <trkpt lat="45.13525" lon="5.52355">
        <ele>1004</ele>
        <time>2014-05-20T16:56:40.000Z</time>
      </trkpt>
      <trkpt lat="45.13503" lon="5.5237">
        <ele>1004</ele>
        <time>2014-05-20T16:56:44.000Z</time>
      </trkpt>
      <trkpt lat="45.13492" lon="5.52378">
        <ele>1004</ele>
        <time>2014-05-20T16:56:46.000Z</time>
      </trkpt>
      <trkpt lat="45.13481" lon="5.52381">
        <ele>1004</ele>
        <time>2014-05-20T16:56:48.000Z</time>
      </trkpt>
      <trkpt lat="45.13457" lon="5.52387">
        <ele>1004</ele>
        <time>2014-05-20T16:56:52.000Z</time>
      </trkpt>
      <trkpt lat="45.13451" lon="5.5239">
        <ele>1004</ele>
        <time>2014-05-20T16:56:53.000Z</time>
      </trkpt>
      <trkpt lat="45.13433" lon="5.524">
        <ele>1003.5999755859</ele>
        <time>2014-05-20T16:56:56.000Z</time>
      </trkpt>
      <trkpt lat="45.13428" lon="5.52405">
        <ele>1003.200012207</ele>
        <time>2014-05-20T16:56:57.000Z</time>
      </trkpt>
      <trkpt lat="45.13422" lon="5.5241">
        <ele>1002.799987793</ele>
        <time>2014-05-20T16:56:58.000Z</time>
      </trkpt>
      <trkpt lat="45.13416" lon="5.52415">
        <ele>1002.4000244141</ele>
        <time>2014-05-20T16:56:59.000Z</time>
      </trkpt>
      <trkpt lat="45.13411" lon="5.5242">
        <ele>1001.799987793</ele>
        <time>2014-05-20T16:57:00.000Z</time>
      </trkpt>
      <trkpt lat="45.13369" lon="5.5246">
        <ele>1001.799987793</ele>
        <time>2014-05-20T16:57:08.000Z</time>
      </trkpt>
      <trkpt lat="45.13333" lon="5.52493">
        <ele>1001.799987793</ele>
        <time>2014-05-20T16:57:15.000Z</time>
      </trkpt>
      <trkpt lat="45.13296" lon="5.52535">
        <ele>1001.799987793</ele>
        <time>2014-05-20T16:57:23.000Z</time>
      </trkpt>
      <trkpt lat="45.13261" lon="5.52567">
        <ele>1001.799987793</ele>
        <time>2014-05-20T16:57:30.000Z</time>
      </trkpt>
      <trkpt lat="45.13242" lon="5.52584">
        <ele>1001.799987793</ele>
        <time>2014-05-20T16:57:34.000Z</time>
      </trkpt>
      <trkpt lat="45.13238" lon="5.52587">
        <ele>1001.799987793</ele>
        <time>2014-05-20T16:57:35.000Z</time>
      </trkpt>
      <trkpt lat="45.13229" lon="5.52593">
        <ele>1001.4000244141</ele>
        <time>2014-05-20T16:57:37.000Z</time>
      </trkpt>
      <trkpt lat="45.13225" lon="5.52596">
        <ele>1001</ele>
        <time>2014-05-20T16:57:38.000Z</time>
      </trkpt>
      <trkpt lat="45.13221" lon="5.526">
        <ele>1000.5999755859</ele>
        <time>2014-05-20T16:57:39.000Z</time>
      </trkpt>
      <trkpt lat="45.13217" lon="5.52603">
        <ele>1000.200012207</ele>
        <time>2014-05-20T16:57:40.000Z</time>
      </trkpt>
      <trkpt lat="45.13213" lon="5.52606">
        <ele>999.79998779297</ele>
        <time>2014-05-20T16:57:41.000Z</time>
      </trkpt>
      <trkpt lat="45.13208" lon="5.5261">
        <ele>999.79998779297</ele>
        <time>2014-05-20T16:57:42.000Z</time>
      </trkpt>
      <trkpt lat="45.13204" lon="5.52612">
        <ele>999.79998779297</ele>
        <time>2014-05-20T16:57:43.000Z</time>
      </trkpt>
      <trkpt lat="45.13193" lon="5.52611">
        <ele>999.79998779297</ele>
        <time>2014-05-20T16:57:46.000Z</time>
      </trkpt>
      <trkpt lat="45.13187" lon="5.52587">
        <ele>999.79998779297</ele>
        <time>2014-05-20T16:57:50.000Z</time>
      </trkpt>
      <trkpt lat="45.13186" lon="5.52566">
        <ele>999.79998779297</ele>
        <time>2014-05-20T16:57:53.000Z</time>
      </trkpt>
      <trkpt lat="45.13186" lon="5.52559">
        <ele>999.79998779297</ele>
        <time>2014-05-20T16:57:54.000Z</time>
      </trkpt>
      <trkpt lat="45.13187" lon="5.52529">
        <ele>999.79998779297</ele>
        <time>2014-05-20T16:57:58.000Z</time>
      </trkpt>
      <trkpt lat="45.13188" lon="5.52516">
        <ele>999.79998779297</ele>
        <time>2014-05-20T16:58:00.000Z</time>
      </trkpt>
      <trkpt lat="45.13189" lon="5.5249">
        <ele>1000.200012207</ele>
        <time>2014-05-20T16:58:04.000Z</time>
      </trkpt>
      <trkpt lat="45.13189" lon="5.52484">
        <ele>1000.5999755859</ele>
        <time>2014-05-20T16:58:05.000Z</time>
      </trkpt>
      <trkpt lat="45.1319" lon="5.52478">
        <ele>1001</ele>
        <time>2014-05-20T16:58:06.000Z</time>
      </trkpt>
      <trkpt lat="45.1319" lon="5.52472">
        <ele>1001.4000244141</ele>
        <time>2014-05-20T16:58:07.000Z</time>
      </trkpt>
      <trkpt lat="45.1319" lon="5.52466">
        <ele>1001.799987793</ele>
        <time>2014-05-20T16:58:08.000Z</time>
      </trkpt>
      <trkpt lat="45.1319" lon="5.52431">
        <ele>1001.799987793</ele>
        <time>2014-05-20T16:58:14.000Z</time>
      </trkpt>
      <trkpt lat="45.1319" lon="5.52415">
        <ele>1002.200012207</ele>
        <time>2014-05-20T16:58:17.000Z</time>
      </trkpt>
      <trkpt lat="45.1319" lon="5.52409">
        <ele>1002.5999755859</ele>
        <time>2014-05-20T16:58:18.000Z</time>
      </trkpt>
      <trkpt lat="45.1319" lon="5.52404">
        <ele>1003.4000244141</ele>
        <time>2014-05-20T16:58:19.000Z</time>
      </trkpt>
      <trkpt lat="45.1319" lon="5.52398">
        <ele>1003.799987793</ele>
        <time>2014-05-20T16:58:20.000Z</time>
      </trkpt>
      <trkpt lat="45.1319" lon="5.52361">
        <ele>1004.200012207</ele>
        <time>2014-05-20T16:58:27.000Z</time>
      </trkpt>
      <trkpt lat="45.1319" lon="5.52356">
        <ele>1004.5999755859</ele>
        <time>2014-05-20T16:58:28.000Z</time>
      </trkpt>
      <trkpt lat="45.13189" lon="5.5235">
        <ele>1005</ele>
        <time>2014-05-20T16:58:29.000Z</time>
      </trkpt>
      <trkpt lat="45.13188" lon="5.52345">
        <ele>1005.4000244141</ele>
        <time>2014-05-20T16:58:30.000Z</time>
      </trkpt>
      <trkpt lat="45.13188" lon="5.5234">
        <ele>1006</ele>
        <time>2014-05-20T16:58:31.000Z</time>
      </trkpt>
      <trkpt lat="45.13185" lon="5.52325">
        <ele>1006</ele>
        <time>2014-05-20T16:58:34.000Z</time>
      </trkpt>
      <trkpt lat="45.13177" lon="5.52297">
        <ele>1006</ele>
        <time>2014-05-20T16:58:40.000Z</time>
      </trkpt>
      <trkpt lat="45.13174" lon="5.52283">
        <ele>1006.4000244141</ele>
        <time>2014-05-20T16:58:43.000Z</time>
      </trkpt>
      <trkpt lat="45.13173" lon="5.5228">
        <ele>1007.200012207</ele>
        <time>2014-05-20T16:58:44.000Z</time>
      </trkpt>
      <trkpt lat="45.13172" lon="5.52276">
        <ele>1007.5999755859</ele>
        <time>2014-05-20T16:58:45.000Z</time>
      </trkpt>
      <trkpt lat="45.13172" lon="5.52272">
        <ele>1008</ele>
        <time>2014-05-20T16:58:46.000Z</time>
      </trkpt>
      <trkpt lat="45.13171" lon="5.52256">
        <ele>1008</ele>
        <time>2014-05-20T16:58:51.000Z</time>
      </trkpt>
      <trkpt lat="45.13171" lon="5.52253">
        <ele>1008</ele>
        <time>2014-05-20T16:58:52.000Z</time>
      </trkpt>
      <trkpt lat="45.1317" lon="5.52242">
        <ele>1008</ele>
        <time>2014-05-20T16:58:55.000Z</time>
      </trkpt>
      <trkpt lat="45.1317" lon="5.52239">
        <ele>1008.4000244141</ele>
        <time>2014-05-20T16:58:56.000Z</time>
      </trkpt>
      <trkpt lat="45.1317" lon="5.52235">
        <ele>1008.799987793</ele>
        <time>2014-05-20T16:58:57.000Z</time>
      </trkpt>
      <trkpt lat="45.13169" lon="5.52231">
        <ele>1009.4000244141</ele>
        <time>2014-05-20T16:58:58.000Z</time>
      </trkpt>
      <trkpt lat="45.13169" lon="5.52227">
        <ele>1009.799987793</ele>
        <time>2014-05-20T16:58:59.000Z</time>
      </trkpt>
      <trkpt lat="45.13169" lon="5.52223">
        <ele>1010.200012207</ele>
        <time>2014-05-20T16:59:00.000Z</time>
      </trkpt>
      <trkpt lat="45.13167" lon="5.52204">
        <ele>1010.200012207</ele>
        <time>2014-05-20T16:59:04.000Z</time>
      </trkpt>
      <trkpt lat="45.13164" lon="5.52183">
        <ele>1011</ele>
        <time>2014-05-20T16:59:09.000Z</time>
      </trkpt>
      <trkpt lat="45.13164" lon="5.52179">
        <ele>1011.4000244141</ele>
        <time>2014-05-20T16:59:10.000Z</time>
      </trkpt>
      <trkpt lat="45.13164" lon="5.52175">
        <ele>1011.799987793</ele>
        <time>2014-05-20T16:59:11.000Z</time>
      </trkpt>
      <trkpt lat="45.13163" lon="5.52171">
        <ele>1012.4000244141</ele>
        <time>2014-05-20T16:59:12.000Z</time>
      </trkpt>
      <trkpt lat="45.1316" lon="5.52149">
        <ele>1012.4000244141</ele>
        <time>2014-05-20T16:59:17.000Z</time>
      </trkpt>
      <trkpt lat="45.13153" lon="5.52125">
        <ele>1012.4000244141</ele>
        <time>2014-05-20T16:59:23.000Z</time>
      </trkpt>
      <trkpt lat="45.1315" lon="5.52119">
        <ele>1012.799987793</ele>
        <time>2014-05-20T16:59:25.000Z</time>
      </trkpt>
      <trkpt lat="45.13148" lon="5.52117">
        <ele>1013.200012207</ele>
        <time>2014-05-20T16:59:26.000Z</time>
      </trkpt>
      <trkpt lat="45.13145" lon="5.52115">
        <ele>1013.5999755859</ele>
        <time>2014-05-20T16:59:27.000Z</time>
      </trkpt>
      <trkpt lat="45.13143" lon="5.52113">
        <ele>1014</ele>
        <time>2014-05-20T16:59:28.000Z</time>
      </trkpt>
      <trkpt lat="45.13141" lon="5.52112">
        <ele>1014.4000244141</ele>
        <time>2014-05-20T16:59:29.000Z</time>
      </trkpt>
      <trkpt lat="45.13128" lon="5.52106">
        <ele>1014.4000244141</ele>
        <time>2014-05-20T16:59:33.000Z</time>
      </trkpt>
      <trkpt lat="45.13123" lon="5.52101">
        <ele>1014.4000244141</ele>
        <time>2014-05-20T16:59:35.000Z</time>
      </trkpt>
      <trkpt lat="45.13119" lon="5.52094">
        <ele>1014.4000244141</ele>
        <time>2014-05-20T16:59:37.000Z</time>
      </trkpt>
      <trkpt lat="45.13114" lon="5.52081">
        <ele>1014.4000244141</ele>
        <time>2014-05-20T16:59:41.000Z</time>
      </trkpt>
      <trkpt lat="45.13113" lon="5.52075">
        <ele>1014.4000244141</ele>
        <time>2014-05-20T16:59:43.000Z</time>
      </trkpt>
      <trkpt lat="45.13115" lon="5.52072">
        <ele>1014.4000244141</ele>
        <time>2014-05-20T16:59:45.000Z</time>
      </trkpt>
      <trkpt lat="45.13117" lon="5.5207">
        <ele>1014.4000244141</ele>
        <time>2014-05-20T16:59:47.000Z</time>
      </trkpt>
      <trkpt lat="45.13119" lon="5.52065">
        <ele>1014.4000244141</ele>
        <time>2014-05-20T16:59:49.000Z</time>
      </trkpt>
      <trkpt lat="45.13118" lon="5.52061">
        <ele>1014.4000244141</ele>
        <time>2014-05-20T16:59:50.000Z</time>
      </trkpt>
      <trkpt lat="45.13119" lon="5.52057">
        <ele>1014.799987793</ele>
        <time>2014-05-20T16:59:51.000Z</time>
      </trkpt>
      <trkpt lat="45.1312" lon="5.52053">
        <ele>1015.200012207</ele>
        <time>2014-05-20T16:59:52.000Z</time>
      </trkpt>
      <trkpt lat="45.13121" lon="5.52049">
        <ele>1015.5999755859</ele>
        <time>2014-05-20T16:59:53.000Z</time>
      </trkpt>
      <trkpt lat="45.13121" lon="5.52044">
        <ele>1016</ele>
        <time>2014-05-20T16:59:54.000Z</time>
      </trkpt>
      <trkpt lat="45.13122" lon="5.52039">
        <ele>1016.4000244141</ele>
        <time>2014-05-20T16:59:55.000Z</time>
      </trkpt>
      <trkpt lat="45.13126" lon="5.52012">
        <ele>1016.4000244141</ele>
        <time>2014-05-20T17:00:01.000Z</time>
      </trkpt>
      <trkpt lat="45.13126" lon="5.52008">
        <ele>1016.799987793</ele>
        <time>2014-05-20T17:00:02.000Z</time>
      </trkpt>
      <trkpt lat="45.13127" lon="5.52003">
        <ele>1017.200012207</ele>
        <time>2014-05-20T17:00:03.000Z</time>
      </trkpt>
      <trkpt lat="45.13127" lon="5.51999">
        <ele>1017.5999755859</ele>
        <time>2014-05-20T17:00:04.000Z</time>
      </trkpt>
      <trkpt lat="45.13126" lon="5.51994">
        <ele>1018</ele>
        <time>2014-05-20T17:00:05.000Z</time>
      </trkpt>
      <trkpt lat="45.13125" lon="5.51989">
        <ele>1018.4000244141</ele>
        <time>2014-05-20T17:00:06.000Z</time>
      </trkpt>
      <trkpt lat="45.13124" lon="5.51984">
        <ele>1017.799987793</ele>
        <time>2014-05-20T17:00:07.000Z</time>
      </trkpt>
      <trkpt lat="45.13123" lon="5.51979">
        <ele>1017.200012207</ele>
        <time>2014-05-20T17:00:08.000Z</time>
      </trkpt>
      <trkpt lat="45.13121" lon="5.51974">
        <ele>1017.4000244141</ele>
        <time>2014-05-20T17:00:09.000Z</time>
      </trkpt>
      <trkpt lat="45.13119" lon="5.51969">
        <ele>1018.4000244141</ele>
        <time>2014-05-20T17:00:10.000Z</time>
      </trkpt>
      <trkpt lat="45.13118" lon="5.51965">
        <ele>1019.4000244141</ele>
        <time>2014-05-20T17:00:11.000Z</time>
      </trkpt>
      <trkpt lat="45.13116" lon="5.51961">
        <ele>1020.4000244141</ele>
        <time>2014-05-20T17:00:12.000Z</time>
      </trkpt>
      <trkpt lat="45.13114" lon="5.51957">
        <ele>1021.200012207</ele>
        <time>2014-05-20T17:00:13.000Z</time>
      </trkpt>
      <trkpt lat="45.13112" lon="5.51955">
        <ele>1022.200012207</ele>
        <time>2014-05-20T17:00:14.000Z</time>
      </trkpt>
      <trkpt lat="45.131" lon="5.51951">
        <ele>1022.200012207</ele>
        <time>2014-05-20T17:00:18.000Z</time>
      </trkpt>
      <trkpt lat="45.13094" lon="5.51949">
        <ele>1022.200012207</ele>
        <time>2014-05-20T17:00:20.000Z</time>
      </trkpt>
      <trkpt lat="45.13085" lon="5.51952">
        <ele>1022.200012207</ele>
        <time>2014-05-20T17:00:22.000Z</time>
      </trkpt>
      <trkpt lat="45.13058" lon="5.51961">
        <ele>1022.200012207</ele>
        <time>2014-05-20T17:00:28.000Z</time>
      </trkpt>
      <trkpt lat="45.13021" lon="5.51972">
        <ele>1022.200012207</ele>
        <time>2014-05-20T17:00:35.000Z</time>
      </trkpt>
      <trkpt lat="45.12985" lon="5.51985">
        <ele>1022.200012207</ele>
        <time>2014-05-20T17:00:41.000Z</time>
      </trkpt>
      <trkpt lat="45.12979" lon="5.5199">
        <ele>1022.200012207</ele>
        <time>2014-05-20T17:00:42.000Z</time>
      </trkpt>
      <trkpt lat="45.12961" lon="5.52009">
        <ele>1022.200012207</ele>
        <time>2014-05-20T17:00:45.000Z</time>
      </trkpt>
      <trkpt lat="45.12948" lon="5.52021">
        <ele>1022.200012207</ele>
        <time>2014-05-20T17:00:47.000Z</time>
      </trkpt>
      <trkpt lat="45.12933" lon="5.52028">
        <ele>1022.200012207</ele>
        <time>2014-05-20T17:00:49.000Z</time>
      </trkpt>
      <trkpt lat="45.12925" lon="5.5203">
        <ele>1021.799987793</ele>
        <time>2014-05-20T17:00:50.000Z</time>
      </trkpt>
      <trkpt lat="45.12918" lon="5.52032">
        <ele>1021.4000244141</ele>
        <time>2014-05-20T17:00:51.000Z</time>
      </trkpt>
      <trkpt lat="45.1291" lon="5.52035">
        <ele>1021</ele>
        <time>2014-05-20T17:00:52.000Z</time>
      </trkpt>
      <trkpt lat="45.12903" lon="5.52037">
        <ele>1020.5999755859</ele>
        <time>2014-05-20T17:00:53.000Z</time>
      </trkpt>
      <trkpt lat="45.12896" lon="5.5204">
        <ele>1020.200012207</ele>
        <time>2014-05-20T17:00:54.000Z</time>
      </trkpt>
      <trkpt lat="45.12882" lon="5.52048">
        <ele>1020.200012207</ele>
        <time>2014-05-20T17:00:56.000Z</time>
      </trkpt>
      <trkpt lat="45.12869" lon="5.52056">
        <ele>1020.200012207</ele>
        <time>2014-05-20T17:00:58.000Z</time>
      </trkpt>
      <trkpt lat="45.12852" lon="5.52072">
        <ele>1020.200012207</ele>
        <time>2014-05-20T17:01:01.000Z</time>
      </trkpt>
      <trkpt lat="45.12831" lon="5.52091">
        <ele>1020.200012207</ele>
        <time>2014-05-20T17:01:05.000Z</time>
      </trkpt>
      <trkpt lat="45.12825" lon="5.52093">
        <ele>1020.200012207</ele>
        <time>2014-05-20T17:01:06.000Z</time>
      </trkpt>
      <trkpt lat="45.12808" lon="5.52086">
        <ele>1020.200012207</ele>
        <time>2014-05-20T17:01:09.000Z</time>
      </trkpt>
      <trkpt lat="45.12803" lon="5.52082">
        <ele>1020.200012207</ele>
        <time>2014-05-20T17:01:10.000Z</time>
      </trkpt>
      <trkpt lat="45.12769" lon="5.52056">
        <ele>1020.200012207</ele>
        <time>2014-05-20T17:01:17.000Z</time>
      </trkpt>
      <trkpt lat="45.12746" lon="5.52041">
        <ele>1020.5999755859</ele>
        <time>2014-05-20T17:01:22.000Z</time>
      </trkpt>
      <trkpt lat="45.12742" lon="5.52038">
        <ele>1021</ele>
        <time>2014-05-20T17:01:23.000Z</time>
      </trkpt>
      <trkpt lat="45.12737" lon="5.52035">
        <ele>1021.4000244141</ele>
        <time>2014-05-20T17:01:24.000Z</time>
      </trkpt>
      <trkpt lat="45.12733" lon="5.52032">
        <ele>1021.799987793</ele>
        <time>2014-05-20T17:01:25.000Z</time>
      </trkpt>
      <trkpt lat="45.12728" lon="5.52029">
        <ele>1022.200012207</ele>
        <time>2014-05-20T17:01:26.000Z</time>
      </trkpt>
      <trkpt lat="45.12712" lon="5.52019">
        <ele>1022.200012207</ele>
        <time>2014-05-20T17:01:30.000Z</time>
      </trkpt>
      <trkpt lat="45.12701" lon="5.5201">
        <ele>1022.200012207</ele>
        <time>2014-05-20T17:01:35.000Z</time>
      </trkpt>
      <trkpt lat="45.12704" lon="5.52002">
        <ele>1022.200012207</ele>
        <time>2014-05-20T17:01:39.000Z</time>
      </trkpt>
    </trkseg>
  </trk>
</gpx>